Observation data for Welch on 01/19/2019      Previous  Date  Next       Current Mesonet Observations  Soil Data  Daily Summary Page  Observations in Plain Language
KWE2 190600Z 35024KT 03/M00 A3008 RMK A01 T00281004  RH  079%=      5-min Rain = 0
KWE2 190601Z 35021KT 03/M00 A3008 RMK A01 T00281004  RH  080%=      5-min Rain = 0
KWE2 190602Z 34021G26KT 03/M00 A3008 RMK A01 T00271004  RH  080%=      5-min Rain = 0
KWE2 190603Z 34023G30KT 03/M00 A3008 RMK A01 T00271004  RH  080%=      5-min Rain = 0
KWE2 190604Z 35019G24KT 03/M00 A3008 RMK A01 T00271004  RH  080%=      5-min Rain = 0
KWE2 190605Z 34020KT 03/M00 A3008 RMK A01 T00271004  RH  080%=      5-min Rain = 0
KWE2 190606Z 35022KT 03/M00 A3008 RMK A01 T00261004  RH  081%=      5-min Rain = 0
KWE2 190607Z 35021KT 03/M00 A3008 RMK A01 T00261004  RH  081%=      5-min Rain = 0
KWE2 190608Z 35022G27KT 03/M00 A3008 RMK A01 T00261004  RH  081%=      5-min Rain = 0
KWE2 190609Z 35021G26KT 03/M00 A3008 RMK A01 T00261003  RH  081%=      5-min Rain = 0
KWE2 190610Z 35021KT 03/M00 A3008 RMK A01 T00261003  RH  081%=      5-min Rain = 0
KWE2 190611Z 35023KT 03/M00 A3008 RMK A01 T00261003  RH  081%=      5-min Rain = 0
KWE2 190612Z 34023KT 03/M00 A3008 RMK A01 T00251004  RH  081%=      5-min Rain = 0
KWE2 190613Z 34020KT 03/M00 A3009 RMK A01 T00261004  RH  081%=      5-min Rain = 0
KWE2 190614Z 34021KT 03/M00 A3009 RMK A01 T00261004  RH  081%=      5-min Rain = 0
KWE2 190615Z 35021G27KT 03/M00 A3009 RMK A01 T00251004  RH  081%=      5-min Rain = 0
KWE2 190616Z 34019KT 03/M00 A3009 RMK A01 T00251004  RH  081%=      5-min Rain = 0
KWE2 190617Z 35019KT 03/M00 A3009 RMK A01 T00251003  RH  081%=      5-min Rain = 0
KWE2 190618Z 35018KT 03/M00 A3009 RMK A01 T00251003  RH  082%=      5-min Rain = 0
KWE2 190619Z 34018KT 03/M00 A3009 RMK A01 T00251003  RH  082%=      5-min Rain = 0
KWE2 190620Z 35017KT 03/M00 A3009 RMK A01 T00251003  RH  082%=      5-min Rain = 0
KWE2 190621Z 34020KT 03/M00 A3009 RMK A01 T00251003  RH  082%=      5-min Rain = 0
KWE2 190622Z 35018KT 03/M00 A3009 RMK A01 T00251003  RH  082%=      5-min Rain = 0
KWE2 190623Z 34017KT 02/M00 A3009 RMK A01 T00241003  RH  082%=      5-min Rain = 0
KWE2 190624Z 35017KT 03/M00 A3009 RMK A01 T00251003  RH  082%=      5-min Rain = 0
KWE2 190625Z 35017KT 03/M00 A3009 RMK A01 T00251003  RH  082%=      5-min Rain = 0
KWE2 190626Z 35018KT 03/M00 A3009 RMK A01 T00251003  RH  082%=      5-min Rain = 0
KWE2 190627Z 34017G22KT 03/M00 A3009 RMK A01 T00251002  RH  082%=      5-min Rain = 0
KWE2 190628Z 34019KT 03/M00 A3009 RMK A01 T00251003  RH  082%=      5-min Rain = 0
KWE2 190629Z 34019G24KT 03/M00 A3009 RMK A01 T00261002  RH  081%=      5-min Rain = 0
KWE2 190630Z 34021G26KT 03/M00 A301 RMK A01 T00261003  RH  081%=      5-min Rain = 0
KWE2 190631Z 34019KT 03/M00 A301 RMK A01 T00271003  RH  081%=      5-min Rain = 0
KWE2 190632Z 34019KT 03/M00 A301 RMK A01 T00271003  RH  081%=      5-min Rain = 0
KWE2 190633Z 35018KT 03/M00 A301 RMK A01 T00281003  RH  080%=      5-min Rain = 0
KWE2 190634Z 35018KT 03/M00 A301 RMK A01 T00281003  RH  080%=      5-min Rain = 0
KWE2 190635Z 35022KT 03/M00 A301 RMK A01 T00281003  RH  080%=      5-min Rain = 0
KWE2 190636Z 35023KT 03/M00 A301 RMK A01 T00281004  RH  079%=      5-min Rain = 0
KWE2 190637Z 34023KT 03/M00 A301 RMK A01 T00291004  RH  079%=      5-min Rain = 0
KWE2 190638Z 34018KT 03/M00 A301 RMK A01 T00291004  RH  079%=      5-min Rain = 0
KWE2 190639Z 35018KT 03/M00 A301 RMK A01 T00291004  RH  079%=      5-min Rain = 0
KWE2 190640Z 35020G25KT 03/M00 A301 RMK A01 T00281004  RH  079%=      5-min Rain = 0
KWE2 190641Z 34023KT 03/M00 A301 RMK A01 T00281004  RH  079%=      5-min Rain = 0
KWE2 190642Z 34022G28KT 03/M00 A301 RMK A01 T00281004  RH  079%=      5-min Rain = 0
KWE2 190643Z 34022KT 03/M00 A301 RMK A01 T00281004  RH  079%=      5-min Rain = 0
KWE2 190644Z 34020KT 03/M01 A3011 RMK A01 T00281005  RH  079%=      5-min Rain = 0
KWE2 190645Z 34020KT 03/M01 A3011 RMK A01 T00281005  RH  079%=      5-min Rain = 0
KWE2 190646Z 34020KT 03/M01 A3011 RMK A01 T00281005  RH  079%=      5-min Rain = 0
KWE2 190647Z 34021KT 03/M01 A3011 RMK A01 T00271005  RH  079%=      5-min Rain = 0
KWE2 190648Z 35020KT 03/M01 A3011 RMK A01 T00281005  RH  079%=      5-min Rain = 0
KWE2 190649Z 34020G26KT 03/M01 A3011 RMK A01 T00271006  RH  079%=      5-min Rain = 0
KWE2 190650Z 34019G24KT 03/M01 A3011 RMK A01 T00271006  RH  079%=      5-min Rain = 0
KWE2 190651Z 34021G26KT 03/M01 A3011 RMK A01 T00271005  RH  079%=      5-min Rain = 0
KWE2 190652Z 34023KT 03/M01 A3011 RMK A01 T00271006  RH  079%=      5-min Rain = 0
KWE2 190653Z 34023KT 03/M01 A3011 RMK A01 T00271006  RH  079%=      5-min Rain = 0
KWE2 190654Z 34018KT 03/M01 A3011 RMK A01 T00271006  RH  079%=      5-min Rain = 0
KWE2 190655Z 34020G25KT 03/M01 A3011 RMK A01 T00271006  RH  079%=      5-min Rain = 0
KWE2 190656Z 34019KT 03/M01 A3011 RMK A01 T00271006  RH  079%=      5-min Rain = 0
KWE2 190657Z 34019KT 03/M01 A3011 RMK A01 T00271006  RH  079%=      5-min Rain = 0
KWE2 190658Z 34020KT 03/M01 A3011 RMK A01 T00261006  RH  079%=      5-min Rain = 0
KWE2 190659Z 34019KT 03/M01 A3011 RMK A01 T00261006  RH  079%=      5-min Rain = 0
KWE2 190700Z 34019G24KT 03/M01 A3011 RMK A01 T00261006  RH  079%=      5-min Rain = 0
KWE2 190701Z 34021KT 03/M01 A3011 RMK A01 T00261006  RH  079%=      5-min Rain = 0
KWE2 190702Z 35018G23KT 03/M01 A3011 RMK A01 T00261006  RH  079%=      5-min Rain = 0
KWE2 190703Z 34018KT 03/M01 A3011 RMK A01 T00271006  RH  079%=      5-min Rain = 0
KWE2 190704Z 34020KT 03/M01 A3012 RMK A01 T00261006  RH  079%=      5-min Rain = 0
KWE2 190705Z 34020KT 03/M01 A3011 RMK A01 T00261006  RH  079%=      5-min Rain = 0
KWE2 190706Z 34018G23KT 03/M01 A3012 RMK A01 T00261006  RH  079%=      5-min Rain = 0
KWE2 190707Z 34017KT 03/M01 A3012 RMK A01 T00261006  RH  079%=      5-min Rain = 0
KWE2 190708Z 35020KT 03/M01 A3012 RMK A01 T00261006  RH  079%=      5-min Rain = 0
KWE2 190709Z 35021KT 03/M01 A3012 RMK A01 T00271006  RH  079%=      5-min Rain = 0
KWE2 190710Z 34018G23KT 03/M01 A3012 RMK A01 T00271006  RH  079%=      5-min Rain = 0
KWE2 190711Z 34017KT 03/M01 A3012 RMK A01 T00271007  RH  079%=      5-min Rain = 0
KWE2 190712Z 34018KT 03/M01 A3012 RMK A01 T00271006  RH  079%=      5-min Rain = 0
KWE2 190713Z 34018KT 03/M01 A3012 RMK A01 T00271006  RH  079%=      5-min Rain = 0
KWE2 190714Z 35017KT 03/M01 A3012 RMK A01 T00271006  RH  079%=      5-min Rain = 0
KWE2 190715Z 34018KT 03/M01 A3012 RMK A01 T00281006  RH  078%=      5-min Rain = 0
KWE2 190716Z 34018KT 03/M01 A3012 RMK A01 T00281006  RH  078%=      5-min Rain = 0
KWE2 190717Z 34017KT 03/M01 A3012 RMK A01 T00291007  RH  077%=      5-min Rain = 0
KWE2 190718Z 34016KT 03/M01 A3012 RMK A01 T00291007  RH  077%=      5-min Rain = 0
KWE2 190719Z 34018KT 03/M01 A3012 RMK A01 T00291007  RH  077%=      5-min Rain = 0
KWE2 190720Z 34020KT 03/M01 A3012 RMK A01 T00291008  RH  077%=      5-min Rain = 0
KWE2 190721Z 34018KT 03/M01 A3012 RMK A01 T00301007  RH  077%=      5-min Rain = 0
KWE2 190722Z 34017KT 03/M01 A3012 RMK A01 T00301008  RH  076%=      5-min Rain = 0
KWE2 190723Z 34019KT 03/M01 A3012 RMK A01 T00301008  RH  076%=      5-min Rain = 0
KWE2 190724Z 35019G24KT 03/M01 A3012 RMK A01 T00301008  RH  076%=      5-min Rain = 0
KWE2 190725Z 34022KT 03/M01 A3012 RMK A01 T00301009  RH  076%=      5-min Rain = 0
KWE2 190726Z 34023KT 03/M01 A3012 RMK A01 T00301010  RH  075%=      5-min Rain = 0
KWE2 190727Z 34021KT 03/M01 A3013 RMK A01 T00301011  RH  075%=      5-min Rain = 0
KWE2 190728Z 34021KT 03/M01 A3012 RMK A01 T00291012  RH  074%=      5-min Rain = 0
KWE2 190729Z 34018KT 03/M01 A3013 RMK A01 T00291012  RH  074%=      5-min Rain = 0
KWE2 190730Z 34022G27KT 03/M01 A3013 RMK A01 T00291013  RH  074%=      5-min Rain = 0
KWE2 190731Z 34021G26KT 03/M01 A3013 RMK A01 T00291014  RH  074%=      5-min Rain = 0
KWE2 190732Z 34022KT 03/M02 A3013 RMK A01 T00281015  RH  073%=      5-min Rain = 0
KWE2 190733Z 34023KT 03/M02 A3013 RMK A01 T00281015  RH  073%=      5-min Rain = 0
KWE2 190734Z 34023G29KT 03/M02 A3013 RMK A01 T00281016  RH  073%=      5-min Rain = 0
KWE2 190735Z 34023G29KT 03/M02 A3013 RMK A01 T00281017  RH  073%=      5-min Rain = 0
KWE2 190736Z 34021G28KT 03/M02 A3013 RMK A01 T00281017  RH  072%=      5-min Rain = 0
KWE2 190737Z 34024G30KT 03/M02 A3013 RMK A01 T00281017  RH  072%=      5-min Rain = 0
KWE2 190738Z 33022KT 03/M02 A3013 RMK A01 T00271018  RH  072%=      5-min Rain = 0
KWE2 190739Z 33027G32KT 03/M02 A3013 RMK A01 T00271018  RH  072%=      5-min Rain = 0
KWE2 190740Z 34026KT 03/M02 A3013 RMK A01 T00271019  RH  072%=      5-min Rain = 0
KWE2 190741Z 34021KT 03/M02 A3013 RMK A01 T00271019  RH  072%=      5-min Rain = 0
KWE2 190742Z 34019KT 03/M02 A3013 RMK A01 T00261020  RH  072%=      5-min Rain = 0
KWE2 190743Z 34021KT 03/M02 A3013 RMK A01 T00251020  RH  072%=      5-min Rain = 0
KWE2 190744Z 34024KT 03/M02 A3013 RMK A01 T00251020  RH  072%=      5-min Rain = 0
KWE2 190745Z 34022KT 02/M02 A3013 RMK A01 T00241021  RH  072%=      5-min Rain = 0
KWE2 190746Z 34023KT 02/M02 A3013 RMK A01 T00241021  RH  072%=      5-min Rain = 0
KWE2 190747Z 34022KT 02/M02 A3013 RMK A01 T00241021  RH  072%=      5-min Rain = 0
KWE2 190748Z 34022KT 02/M02 A3013 RMK A01 T00241021  RH  072%=      5-min Rain = 0
KWE2 190749Z 34024KT 02/M02 A3013 RMK A01 T00241021  RH  072%=      5-min Rain = 0
KWE2 190750Z 34019KT 02/M02 A3013 RMK A01 T00241021  RH  072%=      5-min Rain = 0
KWE2 190751Z 34021G26KT 02/M02 A3013 RMK A01 T00231021  RH  072%=      5-min Rain = 0
KWE2 190752Z 34020KT 02/M02 A3013 RMK A01 T00231022  RH  072%=      5-min Rain = 0
KWE2 190753Z 35025KT 02/M02 A3013 RMK A01 T00231022  RH  072%=      5-min Rain = 0
KWE2 190754Z 34020KT 02/M02 A3014 RMK A01 T00231023  RH  072%=      5-min Rain = 0
KWE2 190755Z 35019KT 02/M02 A3014 RMK A01 T00231023  RH  072%=      5-min Rain = 0
KWE2 190756Z 35021KT 02/M02 A3014 RMK A01 T00221023  RH  072%=      5-min Rain = 0
KWE2 190757Z 35021KT 02/M02 A3014 RMK A01 T00221023  RH  072%=      5-min Rain = 0
KWE2 190758Z 35023KT 02/M02 A3014 RMK A01 T00221023  RH  072%=      5-min Rain = 0
KWE2 190759Z 35020G25KT 02/M02 A3014 RMK A01 T00221024  RH  072%=      5-min Rain = 0
KWE2 190800Z 34020KT 02/M02 A3014 RMK A01 T00221024  RH  071%=      5-min Rain = 0
KWE2 190801Z 34020KT 02/M02 A3014 RMK A01 T00221024  RH  072%=      5-min Rain = 0
KWE2 190802Z 35020KT 02/M02 A3014 RMK A01 T00221024  RH  072%=      5-min Rain = 0
KWE2 190803Z 34022KT 02/M02 A3014 RMK A01 T00221024  RH  072%=      5-min Rain = 0
KWE2 190804Z 35020KT 02/M02 A3014 RMK A01 T00221024  RH  072%=      5-min Rain = 0
KWE2 190805Z 35021G26KT 02/M02 A3014 RMK A01 T00221024  RH  071%=      5-min Rain = 0
KWE2 190806Z 34020KT 02/M02 A3015 RMK A01 T00221024  RH  071%=      5-min Rain = 0
KWE2 190807Z 34019KT 02/M02 A3015 RMK A01 T00221024  RH  072%=      5-min Rain = 0
KWE2 190808Z 34018G23KT 02/M02 A3015 RMK A01 T00221024  RH  072%=      5-min Rain = 0
KWE2 190809Z 34019KT 02/M02 A3015 RMK A01 T00221024  RH  072%=      5-min Rain = 0
KWE2 190810Z 34017KT 02/M02 A3015 RMK A01 T00211024  RH  072%=      5-min Rain = 0
KWE2 190811Z 34017KT 02/M02 A3015 RMK A01 T00211024  RH  072%=      5-min Rain = 0
KWE2 190812Z 34018KT 02/M02 A3015 RMK A01 T00201024  RH  073%=      5-min Rain = 0
KWE2 190813Z 34018KT 02/M02 A3015 RMK A01 T00201023  RH  073%=      5-min Rain = 0
KWE2 190814Z 35018KT 02/M02 A3015 RMK A01 T00201023  RH  073%=      5-min Rain = 0
KWE2 190815Z 35017KT 02/M02 A3015 RMK A01 T00201023  RH  073%=      5-min Rain = 0
KWE2 190816Z 34016KT 02/M02 A3015 RMK A01 T00201023  RH  073%=      5-min Rain = 0
KWE2 190817Z 35015KT 02/M02 A3015 RMK A01 T00201023  RH  074%=      5-min Rain = 0
KWE2 190818Z 34015KT 02/M02 A3016 RMK A01 T00191022  RH  074%=      5-min Rain = 0
KWE2 190819Z 34015KT 02/M02 A3016 RMK A01 T00191022  RH  074%=      5-min Rain = 0
KWE2 190820Z 34014KT 02/M02 A3016 RMK A01 T00191022  RH  075%=      5-min Rain = 0
KWE2 190821Z 34014KT 02/M02 A3016 RMK A01 T00181022  RH  075%=      5-min Rain = 0
KWE2 190822Z 35015KT 02/M02 A3016 RMK A01 T00181022  RH  075%=      5-min Rain = 0
KWE2 190823Z 34015KT 02/M02 A3016 RMK A01 T00181021  RH  075%=      5-min Rain = 0
KWE2 190824Z 34016KT 02/M02 A3016 RMK A01 T00181021  RH  075%=      5-min Rain = 0
KWE2 190825Z 34014KT 02/M02 A3016 RMK A01 T00181021  RH  075%=      5-min Rain = 0
KWE2 190826Z 34014KT 02/M02 A3016 RMK A01 T00181021  RH  075%=      5-min Rain = 0
KWE2 190827Z 34013KT 02/M02 A3016 RMK A01 T00181021  RH  075%=      5-min Rain = 0
KWE2 190828Z 34013KT 02/M02 A3016 RMK A01 T00171021  RH  076%=      5-min Rain = 0
KWE2 190829Z 34014KT 02/M02 A3016 RMK A01 T00161021  RH  076%=      5-min Rain = 0
KWE2 190830Z 34013KT 02/M02 A3016 RMK A01 T00161020  RH  077%=      5-min Rain = 0
KWE2 190831Z 34014KT 02/M02 A3016 RMK A01 T00161020  RH  077%=      5-min Rain = 0
KWE2 190832Z 34013KT 02/M02 A3016 RMK A01 T00161020  RH  077%=      5-min Rain = 0
KWE2 190833Z 34012KT 02/M02 A3016 RMK A01 T00161020  RH  077%=      5-min Rain = 0
KWE2 190834Z 34011KT 02/M02 A3016 RMK A01 T00151020  RH  077%=      5-min Rain = 0
KWE2 190835Z 34013KT 02/M02 A3016 RMK A01 T00151020  RH  078%=      5-min Rain = 0
KWE2 190836Z 33014KT 02/M02 A3016 RMK A01 T00151019  RH  078%=      5-min Rain = 0
KWE2 190837Z 34016KT 02/M02 A3016 RMK A01 T00151018  RH  078%=      5-min Rain = 0
KWE2 190838Z 34013KT 02/M02 A3016 RMK A01 T00171017  RH  078%=      5-min Rain = 0
KWE2 190839Z 34014KT 02/M02 A3016 RMK A01 T00171018  RH  078%=      5-min Rain = 0
KWE2 190840Z 33015KT 02/M02 A3016 RMK A01 T00161018  RH  078%=      5-min Rain = 0
KWE2 190841Z 34015KT 02/M02 A3016 RMK A01 T00161018  RH  078%=      5-min Rain = 0
KWE2 190842Z 34017G22KT 02/M02 A3016 RMK A01 T00171019  RH  077%=      5-min Rain = 0
KWE2 190843Z 34014KT 02/M02 A3016 RMK A01 T00181018  RH  077%=      5-min Rain = 0
KWE2 190844Z 34018KT 02/M02 A3016 RMK A01 T00171019  RH  077%=      5-min Rain = 0
KWE2 190845Z 34018KT 02/M02 A3016 RMK A01 T00181020  RH  076%=      5-min Rain = 0
KWE2 190846Z 34016KT 02/M02 A3016 RMK A01 T00181020  RH  076%=      5-min Rain = 0
KWE2 190847Z 34015KT 02/M02 A3016 RMK A01 T00181020  RH  076%=      5-min Rain = 0
KWE2 190848Z 34016G21KT 02/M02 A3016 RMK A01 T00171021  RH  076%=      5-min Rain = 0
KWE2 190849Z 34018KT 02/M02 A3016 RMK A01 T00171021  RH  076%=      5-min Rain = 0
KWE2 190850Z 34017KT 02/M02 A3016 RMK A01 T00171022  RH  075%=      5-min Rain = 0
KWE2 190851Z 34018KT 02/M02 A3016 RMK A01 T00171022  RH  075%=      5-min Rain = 0
KWE2 190852Z 35017G22KT 02/M02 A3016 RMK A01 T00171023  RH  075%=      5-min Rain = 0
KWE2 190853Z 34019G24KT 02/M02 A3016 RMK A01 T00171023  RH  074%=      5-min Rain = 0
KWE2 190854Z 34022KT 02/M02 A3016 RMK A01 T00171024  RH  074%=      5-min Rain = 0
KWE2 190855Z 34020KT 02/M02 A3016 RMK A01 T00181024  RH  073%=      5-min Rain = 0
KWE2 190856Z 34018KT 02/M03 A3016 RMK A01 T00181025  RH  073%=      5-min Rain = 0
KWE2 190857Z 34019KT 02/M03 A3016 RMK A01 T00181025  RH  073%=      5-min Rain = 0
KWE2 190858Z 34019G24KT 02/M03 A3016 RMK A01 T00181025  RH  073%=      5-min Rain = 0
KWE2 190859Z 34019KT 02/M03 A3016 RMK A01 T00171025  RH  073%=      5-min Rain = 0
KWE2 190900Z 34018KT 02/M03 A3016 RMK A01 T00171025  RH  073%=      5-min Rain = 0
KWE2 190901Z 34017KT 02/M03 A3016 RMK A01 T00171025  RH  074%=      5-min Rain = 0
KWE2 190902Z 34017KT 02/M03 A3016 RMK A01 T00161025  RH  074%=      5-min Rain = 0
KWE2 190903Z 34017KT 02/M03 A3017 RMK A01 T00161025  RH  074%=      5-min Rain = 0
KWE2 190904Z 34016KT 02/M03 A3017 RMK A01 T00161026  RH  074%=      5-min Rain = 0
KWE2 190905Z 34017KT 02/M03 A3017 RMK A01 T00161026  RH  074%=      5-min Rain = 0
KWE2 190906Z 34017KT 02/M03 A3017 RMK A01 T00161026  RH  074%=      5-min Rain = 0
KWE2 190907Z 34021KT 02/M03 A3016 RMK A01 T00161027  RH  073%=      5-min Rain = 0
KWE2 190908Z 34018KT 02/M03 A3017 RMK A01 T00161027  RH  073%=      5-min Rain = 0
KWE2 190909Z 35018KT 02/M03 A3017 RMK A01 T00161028  RH  072%=      5-min Rain = 0
KWE2 190910Z 34017KT 02/M03 A3017 RMK A01 T00171028  RH  072%=      5-min Rain = 0
KWE2 190911Z 34019KT 02/M03 A3016 RMK A01 T00161028  RH  072%=      5-min Rain = 0
KWE2 190912Z 35020KT 02/M03 A3017 RMK A01 T00161028  RH  072%=      5-min Rain = 0
KWE2 190913Z 34021KT 02/M03 A3016 RMK A01 T00171028  RH  072%=      5-min Rain = 0
KWE2 190914Z 34021KT 02/M03 A3017 RMK A01 T00171029  RH  072%=      5-min Rain = 0
KWE2 190915Z 34018KT 02/M03 A3017 RMK A01 T00171028  RH  072%=      5-min Rain = 0
KWE2 190916Z 34021KT 02/M03 A3017 RMK A01 T00171028  RH  072%=      5-min Rain = 0
KWE2 190917Z 34020KT 02/M03 A3017 RMK A01 T00171028  RH  072%=      5-min Rain = 0
KWE2 190918Z 34018KT 02/M03 A3017 RMK A01 T00171028  RH  072%=      5-min Rain = 0
KWE2 190919Z 34018KT 02/M03 A3017 RMK A01 T00161029  RH  072%=      5-min Rain = 0
KWE2 190920Z 35017KT 02/M03 A3017 RMK A01 T00161028  RH  072%=      5-min Rain = 0
KWE2 190921Z 34018KT 02/M03 A3017 RMK A01 T00161029  RH  072%=      5-min Rain = 0
KWE2 190922Z 34019KT 02/M03 A3017 RMK A01 T00151028  RH  073%=      5-min Rain = 0
KWE2 190923Z 34016KT 02/M03 A3017 RMK A01 T00151029  RH  073%=      5-min Rain = 0
KWE2 190924Z 34016KT 02/M03 A3017 RMK A01 T00151029  RH  073%=      5-min Rain = 0
KWE2 190925Z 34017KT 01/M03 A3017 RMK A01 T00141029  RH  073%=      5-min Rain = 0
KWE2 190926Z 34019KT 01/M03 A3017 RMK A01 T00141029  RH  073%=      5-min Rain = 0
KWE2 190927Z 34017G23KT 02/M03 A3017 RMK A01 T00151028  RH  073%=      5-min Rain = 0
KWE2 190928Z 34015KT 02/M03 A3017 RMK A01 T00151029  RH  073%=      5-min Rain = 0
KWE2 190929Z 34016KT 01/M03 A3017 RMK A01 T00141029  RH  073%=      5-min Rain = 0
KWE2 190930Z 34015KT 01/M03 A3018 RMK A01 T00141028  RH  073%=      5-min Rain = 0
KWE2 190931Z 33016G22KT 01/M03 A3018 RMK A01 T00131029  RH  073%=      5-min Rain = 0
KWE2 190932Z 34019KT 01/M03 A3018 RMK A01 T00131029  RH  074%=      5-min Rain = 0
KWE2 190933Z 34016KT 01/M03 A3018 RMK A01 T00141028  RH  073%=      5-min Rain = 0
KWE2 190934Z 34016KT 01/M03 A3018 RMK A01 T00141028  RH  073%=      5-min Rain = 0
KWE2 190935Z 33017KT 02/M03 A3018 RMK A01 T00151028  RH  073%=      5-min Rain = 0
KWE2 190936Z 33015KT 01/M03 A3018 RMK A01 T00141028  RH  073%=      5-min Rain = 0
KWE2 190937Z 33016KT 01/M03 A3018 RMK A01 T00141028  RH  073%=      5-min Rain = 0
KWE2 190938Z 33016KT 01/M03 A3018 RMK A01 T00141028  RH  073%=      5-min Rain = 0
KWE2 190939Z 33016KT 01/M03 A3018 RMK A01 T00141028  RH  073%=      5-min Rain = 0
KWE2 190940Z 33016KT 01/M03 A3019 RMK A01 T00141028  RH  073%=      5-min Rain = 0
KWE2 190941Z 33018KT 01/M03 A3019 RMK A01 T00141028  RH  074%=      5-min Rain = 0
KWE2 190942Z 33015KT 01/M03 A3019 RMK A01 T00141028  RH  074%=      5-min Rain = 0
KWE2 190943Z 33016KT 01/M03 A3019 RMK A01 T00141028  RH  074%=      5-min Rain = 0
KWE2 190944Z 33017KT 01/M03 A3019 RMK A01 T00141028  RH  074%=      5-min Rain = 0
KWE2 190945Z 33015KT 01/M03 A3019 RMK A01 T00141028  RH  074%=      5-min Rain = 0
KWE2 190946Z 32017KT 01/M03 A3019 RMK A01 T00141028  RH  074%=      5-min Rain = 0
KWE2 190947Z 33016KT 01/M03 A3019 RMK A01 T00141028  RH  074%=      5-min Rain = 0
KWE2 190948Z 33017KT 01/M03 A3019 RMK A01 T00141028  RH  074%=      5-min Rain = 0
KWE2 190949Z 33017KT 02/M03 A3019 RMK A01 T00151028  RH  073%=      5-min Rain = 0
KWE2 190950Z 33017KT 02/M03 A3019 RMK A01 T00151028  RH  073%=      5-min Rain = 0
KWE2 190951Z 33014KT 02/M03 A3019 RMK A01 T00151028  RH  073%=      5-min Rain = 0
KWE2 190952Z 33015KT 01/M03 A3019 RMK A01 T00141028  RH  074%=      5-min Rain = 0
KWE2 190953Z 33017KT 01/M03 A3019 RMK A01 T00141028  RH  074%=      5-min Rain = 0
KWE2 190954Z 33017KT 01/M03 A3019 RMK A01 T00141028  RH  074%=      5-min Rain = 0
KWE2 190955Z 33015KT 01/M03 A3019 RMK A01 T00141028  RH  073%=      5-min Rain = 0
KWE2 190956Z 33017KT 01/M03 A3019 RMK A01 T00141028  RH  073%=      5-min Rain = 0
KWE2 190957Z 33015KT 01/M03 A3019 RMK A01 T00141028  RH  073%=      5-min Rain = 0
KWE2 190958Z 33017KT 01/M03 A3019 RMK A01 T00141028  RH  073%=      5-min Rain = 0
KWE2 190959Z 33017KT 01/M03 A3019 RMK A01 T00141028  RH  073%=      5-min Rain = 0
KWE2 191000Z 33017KT 01/M03 A3019 RMK A01 T00141028  RH  073%=      5-min Rain = 0
KWE2 191001Z 33016KT 01/M03 A302 RMK A01 T00141028  RH  073%=      5-min Rain = 0
KWE2 191002Z 33016KT 01/M03 A302 RMK A01 T00141028  RH  073%=      5-min Rain = 0
KWE2 191003Z 33017KT 01/M03 A302 RMK A01 T00141029  RH  074%=      5-min Rain = 0
KWE2 191004Z 33017G22KT 01/M03 A302 RMK A01 T00141029  RH  073%=      5-min Rain = 0
KWE2 191005Z 33019G24KT 01/M03 A302 RMK A01 T00141029  RH  073%=      5-min Rain = 0
KWE2 191006Z 33019KT 02/M03 A3019 RMK A01 T00151029  RH  073%=      5-min Rain = 0
KWE2 191007Z 34017KT 02/M03 A3019 RMK A01 T00151030  RH  072%=      5-min Rain = 0
KWE2 191008Z 34017KT 02/M03 A3019 RMK A01 T00151030  RH  072%=      5-min Rain = 0
KWE2 191009Z 34018KT 02/M03 A3019 RMK A01 T00151030  RH  072%=      5-min Rain = 0
KWE2 191010Z 34018KT 02/M03 A3019 RMK A01 T00151030  RH  072%=      5-min Rain = 0
KWE2 191011Z 34017KT 01/M03 A3019 RMK A01 T00141030  RH  072%=      5-min Rain = 0
KWE2 191012Z 34016KT 01/M03 A3019 RMK A01 T00141030  RH  072%=      5-min Rain = 0
KWE2 191013Z 34019KT 01/M03 A3019 RMK A01 T00141031  RH  072%=      5-min Rain = 0
KWE2 191014Z 34017KT 01/M03 A3019 RMK A01 T00141030  RH  072%=      5-min Rain = 0
KWE2 191015Z 34018KT 01/M03 A3019 RMK A01 T00141031  RH  072%=      5-min Rain = 0
KWE2 191016Z 34018KT 01/M03 A3019 RMK A01 T00141031  RH  072%=      5-min Rain = 0
KWE2 191017Z 34018KT 02/M03 A3019 RMK A01 T00151031  RH  072%=      5-min Rain = 0
KWE2 191018Z 34018KT 02/M03 A3019 RMK A01 T00151031  RH  072%=      5-min Rain = 0
KWE2 191019Z 34017KT 02/M03 A3019 RMK A01 T00151030  RH  072%=      5-min Rain = 0
KWE2 191020Z 34016KT 02/M03 A3019 RMK A01 T00151030  RH  072%=      5-min Rain = 0
KWE2 191021Z 34016KT 02/M03 A302 RMK A01 T00151030  RH  072%=      5-min Rain = 0
KWE2 191022Z 34018KT 01/M03 A302 RMK A01 T00141030  RH  072%=      5-min Rain = 0
KWE2 191023Z 34016KT 01/M03 A302 RMK A01 T00141030  RH  072%=      5-min Rain = 0
KWE2 191024Z 34016KT 01/M03 A302 RMK A01 T00141030  RH  072%=      5-min Rain = 0
KWE2 191025Z 34015KT 01/M03 A302 RMK A01 T00141030  RH  072%=      5-min Rain = 0
KWE2 191026Z 34017G23KT 01/M03 A302 RMK A01 T00141030  RH  072%=      5-min Rain = 0
KWE2 191027Z 34016KT 02/M03 A302 RMK A01 T00151030  RH  072%=      5-min Rain = 0
KWE2 191028Z 34017KT 02/M03 A302 RMK A01 T00151031  RH  072%=      5-min Rain = 0
KWE2 191029Z 34015KT 02/M03 A302 RMK A01 T00151031  RH  072%=      5-min Rain = 0
KWE2 191030Z 34017KT 02/M03 A302 RMK A01 T00151030  RH  072%=      5-min Rain = 0
KWE2 191031Z 34016KT 02/M03 A302 RMK A01 T00151030  RH  072%=      5-min Rain = 0
KWE2 191032Z 34015KT 02/M03 A302 RMK A01 T00151031  RH  071%=      5-min Rain = 0
KWE2 191033Z 34014KT 02/M03 A302 RMK A01 T00151030  RH  072%=      5-min Rain = 0
KWE2 191034Z 34015KT 02/M03 A302 RMK A01 T00151030  RH  072%=      5-min Rain = 0
KWE2 191035Z 34012KT 01/M03 A302 RMK A01 T00141030  RH  072%=      5-min Rain = 0
KWE2 191036Z 34013KT 01/M03 A302 RMK A01 T00141030  RH  072%=      5-min Rain = 0
KWE2 191037Z 34014KT 01/M03 A302 RMK A01 T00141030  RH  073%=      5-min Rain = 0
KWE2 191038Z 34013KT 01/M03 A3021 RMK A01 T00131030  RH  073%=      5-min Rain = 0
KWE2 191039Z 34013KT 01/M03 A3021 RMK A01 T00131030  RH  073%=      5-min Rain = 0
KWE2 191040Z 33012KT 01/M03 A3021 RMK A01 T00141030  RH  073%=      5-min Rain = 0
KWE2 191041Z 33012KT 01/M03 A3021 RMK A01 T00131030  RH  073%=      5-min Rain = 0
KWE2 191042Z 33013KT 01/M03 A3021 RMK A01 T00131030  RH  073%=      5-min Rain = 0
KWE2 191043Z 34012KT 01/M03 A3021 RMK A01 T00131030  RH  073%=      5-min Rain = 0
KWE2 191044Z 33013KT 01/M03 A3021 RMK A01 T00121030  RH  074%=      5-min Rain = 0
KWE2 191045Z 33014KT 01/M03 A3021 RMK A01 T00121030  RH  074%=      5-min Rain = 0
KWE2 191046Z 33013KT 01/M03 A3021 RMK A01 T00131029  RH  073%=      5-min Rain = 0
KWE2 191047Z 33015KT 01/M03 A3021 RMK A01 T00131029  RH  073%=      5-min Rain = 0
KWE2 191048Z 33014KT 01/M03 A3021 RMK A01 T00131029  RH  073%=      5-min Rain = 0
KWE2 191049Z 34016KT 01/M03 A3021 RMK A01 T00141029  RH  073%=      5-min Rain = 0
KWE2 191050Z 34015KT 01/M03 A3021 RMK A01 T00141029  RH  073%=      5-min Rain = 0
KWE2 191051Z 34014KT 02/M03 A3021 RMK A01 T00151029  RH  072%=      5-min Rain = 0
KWE2 191052Z 34014KT 02/M03 A3021 RMK A01 T00151029  RH  072%=      5-min Rain = 0
KWE2 191053Z 34013KT 02/M03 A3021 RMK A01 T00151029  RH  072%=      5-min Rain = 0
KWE2 191054Z 34013KT 02/M03 A3021 RMK A01 T00151029  RH  072%=      5-min Rain = 0
KWE2 191055Z 34014KT 02/M03 A3021 RMK A01 T00151029  RH  072%=      5-min Rain = 0
KWE2 191056Z 34014KT 02/M03 A3021 RMK A01 T00151029  RH  072%=      5-min Rain = 0
KWE2 191057Z 34014KT 02/M03 A3021 RMK A01 T00151030  RH  072%=      5-min Rain = 0
KWE2 191058Z 34013KT 02/M03 A3021 RMK A01 T00151030  RH  072%=      5-min Rain = 0
KWE2 191059Z 35013KT 02/M03 A3021 RMK A01 T00161030  RH  072%=      5-min Rain = 0
KWE2 191100Z 34014KT 02/M03 A3021 RMK A01 T00161030  RH  072%=      5-min Rain = 0
KWE2 191101Z 34016KT 02/M03 A3021 RMK A01 T00161030  RH  072%=      5-min Rain = 0
KWE2 191102Z 34015KT 02/M03 A3021 RMK A01 T00171029  RH  071%=      5-min Rain = 0
KWE2 191103Z 34013KT 02/M03 A3021 RMK A01 T00171030  RH  071%=      5-min Rain = 0
KWE2 191104Z 34014KT 02/M03 A3021 RMK A01 T00171030  RH  071%=      5-min Rain = 0
KWE2 191105Z 34015KT 02/M03 A3021 RMK A01 T00171030  RH  071%=      5-min Rain = 0
KWE2 191106Z 35015G20KT 02/M03 A3021 RMK A01 T00171030  RH  071%=      5-min Rain = 0
KWE2 191107Z 34014KT 02/M03 A3021 RMK A01 T00171030  RH  071%=      5-min Rain = 0
KWE2 191108Z 34014KT 02/M03 A3021 RMK A01 T00181029  RH  071%=      5-min Rain = 0
KWE2 191109Z 35015KT 02/M03 A3021 RMK A01 T00171030  RH  071%=      5-min Rain = 0
KWE2 191110Z 34015KT 02/M03 A3021 RMK A01 T00171030  RH  071%=      5-min Rain = 0
KWE2 191111Z 35013KT 02/M03 A3021 RMK A01 T00181029  RH  071%=      5-min Rain = 0
KWE2 191112Z 35013KT 02/M03 A3021 RMK A01 T00171030  RH  071%=      5-min Rain = 0
KWE2 191113Z 35014KT 02/M03 A3021 RMK A01 T00161030  RH  071%=      5-min Rain = 0
KWE2 191114Z 35016G21KT 02/M03 A3021 RMK A01 T00161030  RH  071%=      5-min Rain = 0
KWE2 191115Z 35016KT 02/M03 A3021 RMK A01 T00171030  RH  071%=      5-min Rain = 0
KWE2 191116Z 35015KT 02/M03 A3021 RMK A01 T00181030  RH  071%=      5-min Rain = 0
KWE2 191117Z 35014KT 02/M03 A3021 RMK A01 T00181030  RH  071%=      5-min Rain = 0
KWE2 191118Z 35016KT 02/M03 A3021 RMK A01 T00181030  RH  071%=      5-min Rain = 0
KWE2 191119Z 35015KT 02/M03 A3021 RMK A01 T00181030  RH  070%=      5-min Rain = 0
KWE2 191120Z 35014KT 02/M03 A3021 RMK A01 T00181030  RH  070%=      5-min Rain = 0
KWE2 191121Z 35013KT 02/M03 A3021 RMK A01 T00191030  RH  070%=      5-min Rain = 0
KWE2 191122Z 35014KT 02/M03 A3021 RMK A01 T00181030  RH  071%=      5-min Rain = 0
KWE2 191123Z 35013KT 02/M03 A3022 RMK A01 T00181030  RH  071%=      5-min Rain = 0
KWE2 191124Z 35014KT 02/M03 A3022 RMK A01 T00181030  RH  071%=      5-min Rain = 0
KWE2 191125Z 35013KT 02/M03 A3022 RMK A01 T00181030  RH  071%=      5-min Rain = 0
KWE2 191126Z 35013KT 02/M03 A3022 RMK A01 T00181030  RH  071%=      5-min Rain = 0
KWE2 191127Z 35015KT 02/M03 A3021 RMK A01 T00171030  RH  071%=      5-min Rain = 0
KWE2 191128Z 35012KT 02/M03 A3022 RMK A01 T00171030  RH  071%=      5-min Rain = 0
KWE2 191129Z 35013KT 02/M03 A3022 RMK A01 T00171030  RH  071%=      5-min Rain = 0
KWE2 191130Z 35013KT 02/M03 A3022 RMK A01 T00171029  RH  071%=      5-min Rain = 0
KWE2 191131Z 35012KT 02/M03 A3022 RMK A01 T00171029  RH  071%=      5-min Rain = 0
KWE2 191132Z 35012KT 02/M03 A3022 RMK A01 T00161030  RH  072%=      5-min Rain = 0
KWE2 191133Z 36012KT 02/M03 A3021 RMK A01 T00161030  RH  072%=      5-min Rain = 0
KWE2 191134Z 36013KT 02/M03 A3021 RMK A01 T00161029  RH  072%=      5-min Rain = 0
KWE2 191135Z 36013KT 02/M03 A3021 RMK A01 T00161030  RH  072%=      5-min Rain = 0
KWE2 191136Z 36012KT 02/M03 A3022 RMK A01 T00161030  RH  072%=      5-min Rain = 0
KWE2 191137Z 36012KT 02/M03 A3021 RMK A01 T00151030  RH  072%=      5-min Rain = 0
KWE2 191138Z 35013KT 01/M03 A3021 RMK A01 T00141030  RH  072%=      5-min Rain = 0
KWE2 191139Z 36012KT 01/M03 A3021 RMK A01 T00141030  RH  072%=      5-min Rain = 0
KWE2 191140Z 35013KT 01/M03 A3021 RMK A01 T00141030  RH  072%=      5-min Rain = 0
KWE2 191141Z 35012KT 02/M03 A3021 RMK A01 T00151030  RH  072%=      5-min Rain = 0
KWE2 191142Z 35011KT 01/M03 A3022 RMK A01 T00141030  RH  072%=      5-min Rain = 0
KWE2 191143Z 35012KT 01/M03 A3022 RMK A01 T00141029  RH  073%=      5-min Rain = 0
KWE2 191144Z 36011KT 01/M03 A3022 RMK A01 T00141029  RH  073%=      5-min Rain = 0
KWE2 191145Z 35010KT 01/M03 A3022 RMK A01 T00141030  RH  073%=      5-min Rain = 0
KWE2 191146Z 35012KT 01/M03 A3022 RMK A01 T00141030  RH  073%=      5-min Rain = 0
KWE2 191147Z 35012KT 01/M03 A3022 RMK A01 T00141030  RH  073%=      5-min Rain = 0
KWE2 191148Z 35010KT 01/M03 A3022 RMK A01 T00141030  RH  073%=      5-min Rain = 0
KWE2 191149Z 35010KT 01/M03 A3021 RMK A01 T00141030  RH  072%=      5-min Rain = 0
KWE2 191150Z 35012KT 01/M03 A3021 RMK A01 T00141030  RH  073%=      5-min Rain = 0
KWE2 191151Z 35011KT 01/M03 A3021 RMK A01 T00141029  RH  073%=      5-min Rain = 0
KWE2 191152Z 35010KT 02/M03 A3021 RMK A01 T00151030  RH  072%=      5-min Rain = 0
KWE2 191153Z 35011KT 01/M03 A3021 RMK A01 T00141030  RH  072%=      5-min Rain = 0
KWE2 191154Z 35010KT 01/M03 A3022 RMK A01 T00141030  RH  072%=      5-min Rain = 0
KWE2 191155Z 35010KT 01/M03 A3022 RMK A01 T00141030  RH  073%=      5-min Rain = 0
KWE2 191156Z 35010KT 01/M03 A3022 RMK A01 T00131030  RH  073%=      5-min Rain = 0
KWE2 191157Z 35010KT 01/M03 A3022 RMK A01 T00131030  RH  073%=      5-min Rain = 0
KWE2 191158Z 34010KT 01/M03 A3022 RMK A01 T00131030  RH  073%=      5-min Rain = 0
KWE2 191159Z 35010KT 01/M03 A3022 RMK A01 T00131030  RH  073%=      5-min Rain = 0
KWE2 191200Z 34009KT 01/M03 A3022 RMK A01 T00121030  RH  073%=      5-min Rain = 0
KWE2 191201Z 34009KT 01/M03 A3022 RMK A01 T00121031  RH  073%=      5-min Rain = 0
KWE2 191202Z 35009KT 01/M03 A3022 RMK A01 T00121030  RH  073%=      5-min Rain = 0
KWE2 191203Z 34008KT 01/M03 A3022 RMK A01 T00121030  RH  074%=      5-min Rain = 0
KWE2 191204Z 35008KT 01/M03 A3022 RMK A01 T00111030  RH  074%=      5-min Rain = 0
KWE2 191205Z 35008KT 01/M03 A3022 RMK A01 T00111031  RH  074%=      5-min Rain = 0
KWE2 191206Z 35008KT 01/M03 A3022 RMK A01 T00111031  RH  074%=      5-min Rain = 0
KWE2 191207Z 35008KT 01/M03 A3022 RMK A01 T00101031  RH  074%=      5-min Rain = 0
KWE2 191208Z 35007KT 01/M03 A3022 RMK A01 T00091031  RH  075%=      5-min Rain = 0
KWE2 191209Z 35007KT 01/M03 A3022 RMK A01 T00091031  RH  075%=      5-min Rain = 0
KWE2 191210Z 35007KT 01/M03 A3022 RMK A01 T00081031  RH  075%=      5-min Rain = 0
KWE2 191211Z 35007KT 01/M03 A3022 RMK A01 T00081030  RH  075%=      5-min Rain = 0
KWE2 191212Z 35006KT 01/M03 A3022 RMK A01 T00081030  RH  075%=      5-min Rain = 0
KWE2 191213Z 35006KT 01/M03 A3022 RMK A01 T00071031  RH  076%=      5-min Rain = 0
KWE2 191214Z 35006KT 01/M03 A3022 RMK A01 T00071031  RH  076%=      5-min Rain = 0
KWE2 191215Z 34006KT 01/M03 A3022 RMK A01 T00061031  RH  076%=      5-min Rain = 0
KWE2 191216Z 34006KT 01/M03 A3023 RMK A01 T00051032  RH  076%=      5-min Rain = 0
KWE2 191217Z 33006KT 01/M03 A3023 RMK A01 T00051031  RH  076%=      5-min Rain = 0
KWE2 191218Z 33006KT 00/M03 A3023 RMK A01 T00041032  RH  077%=      5-min Rain = 0
KWE2 191219Z 32006KT 00/M03 A3023 RMK A01 T00031032  RH  077%=      5-min Rain = 0
KWE2 191220Z 32006KT 00/M03 A3023 RMK A01 T00021033  RH  077%=      5-min Rain = 0
KWE2 191221Z 32006KT 00/M03 A3023 RMK A01 T00021033  RH  078%=      5-min Rain = 0
KWE2 191222Z 32006KT 00/M03 A3023 RMK A01 T00021032  RH  078%=      5-min Rain = 0
KWE2 191223Z 33006KT 00/M03 A3023 RMK A01 T00011033  RH  078%=      5-min Rain = 0
KWE2 191224Z 33006KT 00/M03 A3023 RMK A01 T00021033  RH  078%=      5-min Rain = 0
KWE2 191225Z 33006KT 00/M03 A3023 RMK A01 T00011033  RH  078%=      5-min Rain = 0
KWE2 191226Z 33006KT 00/M03 A3023 RMK A01 T00011033  RH  078%=      5-min Rain = 0
KWE2 191227Z 33006KT 00/03 A3023 RMK A01 T00000-33  RH  078%=      5-min Rain = 0
KWE2 191228Z 33006KT 00/03 A3023 RMK A01 T00000-33  RH  078%=      5-min Rain = 0
KWE2 191229Z 33006KT 00/03 A3023 RMK A01 T00000-33  RH  078%=      5-min Rain = 0
KWE2 191230Z 33006KT 00/03 A3023 RMK A01 T00-00-34  RH  078%=      5-min Rain = 0
KWE2 191231Z 33006KT M00/M03 A3023 RMK A01 T10011034  RH  078%=      5-min Rain = 0
KWE2 191232Z 33006KT M00/M03 A3023 RMK A01 T10011034  RH  078%=      5-min Rain = 0
KWE2 191233Z 32006KT 00/03 A3024 RMK A01 T00-00-34  RH  078%=      5-min Rain = 0
KWE2 191234Z 33006KT M00/M04 A3024 RMK A01 T10011035  RH  078%=      5-min Rain = 0
KWE2 191235Z 32006KT M00/M04 A3024 RMK A01 T10021035  RH  078%=      5-min Rain = 0
KWE2 191236Z 32005KT M00/M04 A3024 RMK A01 T10031036  RH  079%=      5-min Rain = 0
KWE2 191237Z 32005KT M00/M04 A3024 RMK A01 T10041036  RH  079%=      5-min Rain = 0
KWE2 191238Z 32005KT M00/M04 A3024 RMK A01 T10041035  RH  079%=      5-min Rain = 0
KWE2 191239Z 32005KT M00/M04 A3024 RMK A01 T10041035  RH  079%=      5-min Rain = 0
KWE2 191240Z 32005KT M00/M04 A3024 RMK A01 T10041035  RH  080%=      5-min Rain = 0
KWE2 191241Z 32005KT M00/M04 A3024 RMK A01 T10041035  RH  080%=      5-min Rain = 0
KWE2 191242Z 32005KT M00/M03 A3024 RMK A01 T10031034  RH  080%=      5-min Rain = 0
KWE2 191243Z 31005KT M00/M04 A3024 RMK A01 T10031035  RH  079%=      5-min Rain = 0
KWE2 191244Z 31005KT M00/M04 A3024 RMK A01 T10041035  RH  079%=      5-min Rain = 0
KWE2 191245Z 31005KT M00/M04 A3024 RMK A01 T10041035  RH  080%=      5-min Rain = 0
KWE2 191246Z 31006KT M00/M03 A3024 RMK A01 T10041034  RH  080%=      5-min Rain = 0
KWE2 191247Z 32006KT M00/M04 A3024 RMK A01 T10041035  RH  079%=      5-min Rain = 0
KWE2 191248Z 32006KT M00/M04 A3024 RMK A01 T10041035  RH  079%=      5-min Rain = 0
KWE2 191249Z 31006KT M00/M04 A3024 RMK A01 T10041036  RH  079%=      5-min Rain = 0
KWE2 191250Z 31007KT M01/M04 A3025 RMK A01 T10051037  RH  079%=      5-min Rain = 0
KWE2 191251Z 31007KT M01/M04 A3025 RMK A01 T10061038  RH  079%=      5-min Rain = 0
KWE2 191252Z 31007KT M01/M04 A3025 RMK A01 T10081038  RH  080%=      5-min Rain = 0
KWE2 191253Z 31007KT M01/M04 A3025 RMK A01 T10081038  RH  080%=      5-min Rain = 0
KWE2 191254Z 31007KT M01/M04 A3025 RMK A01 T10081037  RH  081%=      5-min Rain = 0
KWE2 191255Z 31008KT M01/M04 A3025 RMK A01 T10071035  RH  081%=      5-min Rain = 0
KWE2 191256Z 31008KT M01/M03 A3025 RMK A01 T10051034  RH  081%=      5-min Rain = 0
KWE2 191257Z 31008KT M01/M04 A3025 RMK A01 T10051035  RH  080%=      5-min Rain = 0
KWE2 191258Z 31008KT M00/M04 A3025 RMK A01 T10041035  RH  080%=      5-min Rain = 0
KWE2 191259Z 31008KT M00/M03 A3025 RMK A01 T10041034  RH  080%=      5-min Rain = 0
KWE2 191300Z 31009KT M00/M03 A3025 RMK A01 T10031034  RH  080%=      5-min Rain = 0
KWE2 191301Z 31009KT M00/M03 A3026 RMK A01 T10031034  RH  080%=      5-min Rain = 0
KWE2 191302Z 31009KT M00/M03 A3026 RMK A01 T10031034  RH  080%=      5-min Rain = 0
KWE2 191303Z 31010KT M00/M03 A3026 RMK A01 T10031034  RH  080%=      5-min Rain = 0
KWE2 191304Z 31009KT M00/M03 A3026 RMK A01 T10031034  RH  080%=      5-min Rain = 0
KWE2 191305Z 31009KT M00/M03 A3026 RMK A01 T10031034  RH  080%=      5-min Rain = 0
KWE2 191306Z 31009KT M00/M03 A3026 RMK A01 T10031034  RH  080%=      5-min Rain = 0
KWE2 191307Z 31009KT M00/M03 A3026 RMK A01 T10031034  RH  080%=      5-min Rain = 0
KWE2 191308Z 31009KT M00/M03 A3026 RMK A01 T10041034  RH  080%=      5-min Rain = 0
KWE2 191309Z 32009KT M00/M03 A3026 RMK A01 T10041034  RH  080%=      5-min Rain = 0
KWE2 191310Z 32008KT M00/M03 A3026 RMK A01 T10041034  RH  080%=      5-min Rain = 0
KWE2 191311Z 32008KT M00/M03 A3026 RMK A01 T10041034  RH  080%=      5-min Rain = 0
KWE2 191312Z 32009KT M01/M04 A3026 RMK A01 T10051035  RH  080%=      5-min Rain = 0
KWE2 191313Z 31009KT M01/M03 A3026 RMK A01 T10051034  RH  080%=      5-min Rain = 0
KWE2 191314Z 31009KT M01/M03 A3026 RMK A01 T10051034  RH  081%=      5-min Rain = 0
KWE2 191315Z 31009KT M01/M04 A3026 RMK A01 T10051035  RH  081%=      5-min Rain = 0
KWE2 191316Z 31008KT M01/M04 A3026 RMK A01 T10051035  RH  081%=      5-min Rain = 0
KWE2 191317Z 31008KT M01/M04 A3026 RMK A01 T10061035  RH  081%=      5-min Rain = 0
KWE2 191318Z 31008KT M01/M03 A3026 RMK A01 T10061034  RH  081%=      5-min Rain = 0
KWE2 191319Z 31008KT M01/M03 A3027 RMK A01 T10061034  RH  081%=      5-min Rain = 0
KWE2 191320Z 31008KT M01/M03 A3027 RMK A01 T10051034  RH  081%=      5-min Rain = 0
KWE2 191321Z 31008KT M01/M03 A3027 RMK A01 T10061034  RH  081%=      5-min Rain = 0
KWE2 191322Z 31009KT M01/M03 A3027 RMK A01 T10061034  RH  081%=      5-min Rain = 0
KWE2 191323Z 31008KT M01/M03 A3027 RMK A01 T10061034  RH  081%=      5-min Rain = 0
KWE2 191324Z 31008KT M01/M03 A3027 RMK A01 T10051034  RH  081%=      5-min Rain = 0
KWE2 191325Z 31008KT M01/M03 A3027 RMK A01 T10051034  RH  081%=      5-min Rain = 0
KWE2 191326Z 31009KT M01/M03 A3027 RMK A01 T10051034  RH  081%=      5-min Rain = 0
KWE2 191327Z 31008KT M01/M03 A3027 RMK A01 T10051034  RH  081%=      5-min Rain = 0
KWE2 191328Z 31008KT M01/M03 A3027 RMK A01 T10051034  RH  081%=      5-min Rain = 0
KWE2 191329Z 31009KT M01/M03 A3027 RMK A01 T10051034  RH  081%=      5-min Rain = 0
KWE2 191330Z 31009KT M00/M03 A3027 RMK A01 T10041033  RH  081%=      5-min Rain = 0
KWE2 191331Z 31009KT M00/M03 A3027 RMK A01 T10041033  RH  081%=      5-min Rain = 0
KWE2 191332Z 31009KT M00/M03 A3027 RMK A01 T10041034  RH  081%=      5-min Rain = 0
KWE2 191333Z 31009KT M00/M03 A3027 RMK A01 T10041034  RH  081%=      5-min Rain = 0
KWE2 191334Z 31009KT M00/M03 A3027 RMK A01 T10041033  RH  081%=      5-min Rain = 0
KWE2 191335Z 31009KT M00/M03 A3027 RMK A01 T10041033  RH  081%=      5-min Rain = 0
KWE2 191336Z 31009KT M00/M03 A3027 RMK A01 T10031033  RH  080%=      5-min Rain = 0
KWE2 191337Z 31009KT M00/M03 A3027 RMK A01 T10031033  RH  080%=      5-min Rain = 0
KWE2 191338Z 31009KT M00/M03 A3028 RMK A01 T10031033  RH  080%=      5-min Rain = 0
KWE2 191339Z 31009KT M00/M03 A3028 RMK A01 T10031033  RH  080%=      5-min Rain = 0
KWE2 191340Z 31009KT M00/M03 A3028 RMK A01 T10031033  RH  080%=      5-min Rain = 0
KWE2 191341Z 31008KT M00/M03 A3028 RMK A01 T10021033  RH  080%=      5-min Rain = 0
KWE2 191342Z 31009KT M00/M03 A3028 RMK A01 T10021033  RH  080%=      5-min Rain = 0
KWE2 191343Z 31009KT M00/M03 A3028 RMK A01 T10031033  RH  080%=      5-min Rain = 0
KWE2 191344Z 31009KT M00/M03 A3028 RMK A01 T10021033  RH  080%=      5-min Rain = 0
KWE2 191345Z 31009KT M00/M03 A3028 RMK A01 T10021033  RH  079%=      5-min Rain = 0
KWE2 191346Z 32009KT M00/M03 A3028 RMK A01 T10011033  RH  079%=      5-min Rain = 0
KWE2 191347Z 31009KT 00/03 A3028 RMK A01 T00-00-33  RH  079%=      5-min Rain = 0
KWE2 191348Z 31009KT M00/M03 A3028 RMK A01 T10011033  RH  079%=      5-min Rain = 0
KWE2 191349Z 31009KT 00/03 A3028 RMK A01 T00-00-33  RH  079%=      5-min Rain = 0
KWE2 191350Z 32009KT 00/03 A3028 RMK A01 T00-00-33  RH  079%=      5-min Rain = 0
KWE2 191351Z 32008KT 00/03 A3028 RMK A01 T00000-33  RH  078%=      5-min Rain = 0
KWE2 191352Z 32008KT 00/03 A3029 RMK A01 T00-00-33  RH  078%=      5-min Rain = 0
KWE2 191353Z 32009KT 00/03 A3029 RMK A01 T00-00-33  RH  079%=      5-min Rain = 0
KWE2 191354Z 32008KT M00/M03 A3029 RMK A01 T10011033  RH  079%=      5-min Rain = 0
KWE2 191355Z 32008KT M00/M03 A3029 RMK A01 T10011033  RH  079%=      5-min Rain = 0
KWE2 191356Z 32008KT M00/M03 A3029 RMK A01 T10011034  RH  079%=      5-min Rain = 0
KWE2 191357Z 31008KT M00/M03 A3029 RMK A01 T10011033  RH  079%=      5-min Rain = 0
KWE2 191358Z 32008KT M00/M03 A3029 RMK A01 T10011033  RH  079%=      5-min Rain = 0
KWE2 191359Z 32008KT M00/M03 A3029 RMK A01 T10011034  RH  079%=      5-min Rain = 0
KWE2 191400Z 31008KT M00/M03 A3029 RMK A01 T10011033  RH  079%=      5-min Rain = 0
KWE2 191401Z 32007KT M00/M03 A3029 RMK A01 T10011034  RH  079%=      5-min Rain = 0
KWE2 191402Z 31006KT M00/M03 A3029 RMK A01 T10021034  RH  079%=      5-min Rain = 0
KWE2 191403Z 31007KT M00/M03 A3029 RMK A01 T10031034  RH  079%=      5-min Rain = 0
KWE2 191404Z 31007KT M00/M03 A3029 RMK A01 T10031034  RH  079%=      5-min Rain = 0
KWE2 191405Z 31007KT M00/M03 A3029 RMK A01 T10021033  RH  080%=      5-min Rain = 0
KWE2 191406Z 31008KT M00/M03 A3029 RMK A01 T10011032  RH  079%=      5-min Rain = 0
KWE2 191407Z 31008KT 00/03 A3029 RMK A01 T00000-32  RH  079%=      5-min Rain = 0
KWE2 191408Z 31008KT 00/03 A3029 RMK A01 T00000-33  RH  078%=      5-min Rain = 0
KWE2 191409Z 31008KT 00/M03 A3029 RMK A01 T00011032  RH  078%=      5-min Rain = 0
KWE2 191410Z 31008KT 00/M03 A3029 RMK A01 T00011033  RH  078%=      5-min Rain = 0
KWE2 191411Z 31008KT 00/M03 A3029 RMK A01 T00021033  RH  078%=      5-min Rain = 0
KWE2 191412Z 31007KT 00/M03 A3029 RMK A01 T00031032  RH  077%=      5-min Rain = 0
KWE2 191413Z 31008KT 00/M03 A3029 RMK A01 T00031032  RH  077%=      5-min Rain = 0
KWE2 191414Z 31008KT 00/M03 A3029 RMK A01 T00021033  RH  077%=      5-min Rain = 0
KWE2 191415Z 31008KT 00/M03 A3029 RMK A01 T00031032  RH  077%=      5-min Rain = 0
KWE2 191416Z 31008KT 00/M03 A3029 RMK A01 T00031032  RH  077%=      5-min Rain = 0
KWE2 191417Z 32008KT 00/M03 A3029 RMK A01 T00031032  RH  077%=      5-min Rain = 0
KWE2 191418Z 32009KT 00/M03 A3029 RMK A01 T00041032  RH  077%=      5-min Rain = 0
KWE2 191419Z 32009KT 00/M03 A3029 RMK A01 T00041032  RH  077%=      5-min Rain = 0
KWE2 191420Z 32009KT 00/M03 A3029 RMK A01 T00041032  RH  077%=      5-min Rain = 0
KWE2 191421Z 32009KT 00/M03 A3029 RMK A01 T00041032  RH  077%=      5-min Rain = 0
KWE2 191422Z 32009KT 01/M03 A3029 RMK A01 T00051032  RH  076%=      5-min Rain = 0
KWE2 191423Z 32009KT 01/M03 A3029 RMK A01 T00051032  RH  076%=      5-min Rain = 0
KWE2 191424Z 32009KT 01/M03 A3029 RMK A01 T00061031  RH  076%=      5-min Rain = 0
KWE2 191425Z 32009KT 01/M03 A3029 RMK A01 T00071031  RH  076%=      5-min Rain = 0
KWE2 191426Z 32008KT 01/M03 A3029 RMK A01 T00071031  RH  076%=      5-min Rain = 0
KWE2 191427Z 33008KT 01/M03 A3029 RMK A01 T00071031  RH  076%=      5-min Rain = 0
KWE2 191428Z 33010KT 01/M03 A3029 RMK A01 T00081030  RH  076%=      5-min Rain = 0
KWE2 191429Z 33010KT 01/M03 A3029 RMK A01 T00081030  RH  076%=      5-min Rain = 0
KWE2 191430Z 33009KT 01/M03 A3029 RMK A01 T00091029  RH  075%=      5-min Rain = 0
KWE2 191431Z 33011KT 01/M03 A3029 RMK A01 T00101029  RH  075%=      5-min Rain = 0
KWE2 191432Z 33010KT 01/M03 A3029 RMK A01 T00111029  RH  075%=      5-min Rain = 0
KWE2 191433Z 33010KT 01/M03 A3029 RMK A01 T00121029  RH  074%=      5-min Rain = 0
KWE2 191434Z 33010KT 01/M03 A3029 RMK A01 T00131029  RH  074%=      5-min Rain = 0
KWE2 191435Z 33009KT 01/M03 A303 RMK A01 T00131029  RH  074%=      5-min Rain = 0
KWE2 191436Z 33011KT 01/M03 A303 RMK A01 T00131028  RH  074%=      5-min Rain = 0
KWE2 191437Z 33010KT 01/M03 A303 RMK A01 T00141028  RH  073%=      5-min Rain = 0
KWE2 191438Z 33011KT 02/M03 A303 RMK A01 T00151028  RH  073%=      5-min Rain = 0
KWE2 191439Z 33011KT 02/M03 A303 RMK A01 T00161028  RH  073%=      5-min Rain = 0
KWE2 191440Z 33011KT 02/M03 A303 RMK A01 T00161028  RH  072%=      5-min Rain = 0
KWE2 191441Z 33012KT 02/M03 A303 RMK A01 T00171028  RH  072%=      5-min Rain = 0
KWE2 191442Z 33013KT 02/M03 A303 RMK A01 T00181028  RH  071%=      5-min Rain = 0
KWE2 191443Z 33012KT 02/M03 A303 RMK A01 T00191028  RH  071%=      5-min Rain = 0
KWE2 191444Z 33013KT 02/M03 A303 RMK A01 T00191028  RH  071%=      5-min Rain = 0
KWE2 191445Z 33013KT 02/M03 A303 RMK A01 T00201028  RH  070%=      5-min Rain = 0
KWE2 191446Z 33013KT 02/M03 A303 RMK A01 T00211028  RH  070%=      5-min Rain = 0
KWE2 191447Z 33012KT 02/M03 A303 RMK A01 T00211029  RH  070%=      5-min Rain = 0
KWE2 191448Z 33012KT 02/M03 A303 RMK A01 T00211028  RH  070%=      5-min Rain = 0
KWE2 191449Z 33014KT 02/M03 A303 RMK A01 T00221028  RH  070%=      5-min Rain = 0
KWE2 191450Z 33014KT 02/M03 A303 RMK A01 T00231028  RH  069%=      5-min Rain = 0
KWE2 191451Z 33012KT 02/M03 A303 RMK A01 T00231028  RH  069%=      5-min Rain = 0
KWE2 191452Z 33012KT 02/M03 A303 RMK A01 T00241028  RH  069%=      5-min Rain = 0
KWE2 191453Z 33013KT 03/M03 A303 RMK A01 T00251027  RH  069%=      5-min Rain = 0
KWE2 191454Z 33012KT 03/M03 A3031 RMK A01 T00251028  RH  068%=      5-min Rain = 0
KWE2 191455Z 33012KT 03/M03 A3031 RMK A01 T00261027  RH  068%=      5-min Rain = 0
KWE2 191456Z 33014KT 03/M03 A3031 RMK A01 T00271027  RH  068%=      5-min Rain = 0
KWE2 191457Z 33013KT 03/M03 A3031 RMK A01 T00271027  RH  067%=      5-min Rain = 0
KWE2 191458Z 33013KT 03/M03 A3031 RMK A01 T00281027  RH  067%=      5-min Rain = 0
KWE2 191459Z 33013KT 03/M03 A3031 RMK A01 T00281027  RH  067%=      5-min Rain = 0
KWE2 191500Z 33015KT 03/M03 A3031 RMK A01 T00291027  RH  066%=      5-min Rain = 0
KWE2 191501Z 33013KT 03/M03 A3031 RMK A01 T00301028  RH  066%=      5-min Rain = 0
KWE2 191502Z 33013KT 03/M03 A3031 RMK A01 T00301027  RH  066%=      5-min Rain = 0
KWE2 191503Z 33014KT 03/M03 A3031 RMK A01 T00311027  RH  066%=      5-min Rain = 0
KWE2 191504Z 33014KT 03/M03 A3032 RMK A01 T00311028  RH  065%=      5-min Rain = 0
KWE2 191505Z 33014KT 03/M03 A3032 RMK A01 T00311028  RH  065%=      5-min Rain = 0
KWE2 191506Z 33014KT 03/M03 A3032 RMK A01 T00321028  RH  065%=      5-min Rain = 0
KWE2 191507Z 33016KT 03/M03 A3032 RMK A01 T00331028  RH  064%=      5-min Rain = 0
KWE2 191508Z 33015KT 03/M03 A3032 RMK A01 T00331029  RH  064%=      5-min Rain = 0
KWE2 191509Z 33015KT 03/M03 A3032 RMK A01 T00331028  RH  064%=      5-min Rain = 0
KWE2 191510Z 33014KT 03/M03 A3032 RMK A01 T00341027  RH  064%=      5-min Rain = 0
KWE2 191511Z 33014KT 03/M03 A3032 RMK A01 T00341027  RH  064%=      5-min Rain = 0
KWE2 191512Z 33015KT 04/M03 A3032 RMK A01 T00351028  RH  064%=      5-min Rain = 0
KWE2 191513Z 33016KT 04/M03 A3032 RMK A01 T00351028  RH  063%=      5-min Rain = 0
KWE2 191514Z 33015KT 04/M03 A3032 RMK A01 T00361028  RH  063%=      5-min Rain = 0
KWE2 191515Z 34015KT 04/M03 A3032 RMK A01 T00371028  RH  063%=      5-min Rain = 0
KWE2 191516Z 33016KT 04/M03 A3032 RMK A01 T00371028  RH  062%=      5-min Rain = 0
KWE2 191517Z 33016KT 04/M03 A3032 RMK A01 T00381028  RH  062%=      5-min Rain = 0
KWE2 191518Z 33015KT 04/M03 A3032 RMK A01 T00391028  RH  062%=      5-min Rain = 0
KWE2 191519Z 33016KT 04/M03 A3032 RMK A01 T00401028  RH  061%=      5-min Rain = 0
KWE2 191520Z 34018KT 04/M03 A3032 RMK A01 T00401029  RH  061%=      5-min Rain = 0
KWE2 191521Z 33018KT 04/M03 A3032 RMK A01 T00411029  RH  060%=      5-min Rain = 0
KWE2 191522Z 33014KT 04/M03 A3032 RMK A01 T00411029  RH  060%=      5-min Rain = 0
KWE2 191523Z 33018KT 04/M03 A3033 RMK A01 T00421028  RH  060%=      5-min Rain = 0
KWE2 191524Z 33019KT 04/M03 A3033 RMK A01 T00431029  RH  060%=      5-min Rain = 0
KWE2 191525Z 33015KT 04/M03 A3033 RMK A01 T00431028  RH  060%=      5-min Rain = 0
KWE2 191526Z 33016KT 04/M03 A3033 RMK A01 T00441028  RH  059%=      5-min Rain = 0
KWE2 191527Z 33017KT 05/M03 A3033 RMK A01 T00451028  RH  059%=      5-min Rain = 0
KWE2 191528Z 33016KT 05/M03 A3033 RMK A01 T00451029  RH  059%=      5-min Rain = 0
KWE2 191529Z 34017KT 05/M03 A3033 RMK A01 T00451029  RH  059%=      5-min Rain = 0
KWE2 191530Z 34018KT 05/M03 A3033 RMK A01 T00461028  RH  058%=      5-min Rain = 0
KWE2 191531Z 34017G22KT 05/M03 A3033 RMK A01 T00471030  RH  057%=      5-min Rain = 0
KWE2 191532Z 34015KT 05/M03 A3033 RMK A01 T00481029  RH  058%=      5-min Rain = 0
KWE2 191533Z 33017KT 05/M03 A3033 RMK A01 T00481030  RH  057%=      5-min Rain = 0
KWE2 191534Z 34015KT 05/M03 A3033 RMK A01 T00481030  RH  057%=      5-min Rain = 0
KWE2 191535Z 34016KT 05/M03 A3033 RMK A01 T00501029  RH  057%=      5-min Rain = 0
KWE2 191536Z 34017KT 05/M03 A3033 RMK A01 T00501030  RH  056%=      5-min Rain = 0
KWE2 191537Z 34014KT 05/M03 A3033 RMK A01 T00501031  RH  056%=      5-min Rain = 0
KWE2 191538Z 34015KT 05/M03 A3033 RMK A01 T00511029  RH  056%=      5-min Rain = 0
KWE2 191539Z 34016KT 05/M03 A3033 RMK A01 T00521030  RH  055%=      5-min Rain = 0
KWE2 191540Z 34016KT 05/M03 A3033 RMK A01 T00531030  RH  055%=      5-min Rain = 0
KWE2 191541Z 34018KT 05/M03 A3033 RMK A01 T00531030  RH  055%=      5-min Rain = 0
KWE2 191542Z 34015KT 05/M03 A3033 RMK A01 T00541031  RH  055%=      5-min Rain = 0
KWE2 191543Z 34017KT 06/M03 A3033 RMK A01 T00551030  RH  054%=      5-min Rain = 0
KWE2 191544Z 35019KT 06/M03 A3033 RMK A01 T00561030  RH  054%=      5-min Rain = 0
KWE2 191545Z 34018KT 06/M03 A3033 RMK A01 T00561031  RH  053%=      5-min Rain = 0
KWE2 191546Z 34017KT 06/M03 A3033 RMK A01 T00561031  RH  054%=      5-min Rain = 0
KWE2 191547Z 35017G22KT 06/M03 A3033 RMK A01 T00561031  RH  054%=      5-min Rain = 0
KWE2 191548Z 35017KT 06/M03 A3033 RMK A01 T00571031  RH  053%=      5-min Rain = 0
KWE2 191549Z 34019KT 06/M03 A3033 RMK A01 T00571032  RH  053%=      5-min Rain = 0
KWE2 191550Z 34018KT 06/M03 A3033 RMK A01 T00581031  RH  053%=      5-min Rain = 0
KWE2 191551Z 34018KT 06/M03 A3033 RMK A01 T00581032  RH  052%=      5-min Rain = 0
KWE2 191552Z 35016G22KT 06/M03 A3033 RMK A01 T00591033  RH  052%=      5-min Rain = 0
KWE2 191553Z 35016KT 06/M03 A3033 RMK A01 T00601032  RH  052%=      5-min Rain = 0
KWE2 191554Z 35019KT 06/M03 A3033 RMK A01 T00611031  RH  052%=      5-min Rain = 0
KWE2 191555Z 35015KT 06/M03 A3033 RMK A01 T00611033  RH  051%=      5-min Rain = 0
KWE2 191556Z 35016KT 06/M03 A3033 RMK A01 T00611032  RH  051%=      5-min Rain = 0
KWE2 191557Z 35015KT 06/M03 A3033 RMK A01 T00621031  RH  051%=      5-min Rain = 0
KWE2 191558Z 36016KT 06/M03 A3033 RMK A01 T00631032  RH  051%=      5-min Rain = 0
KWE2 191559Z 35018KT 06/M04 A3033 RMK A01 T00621035  RH  050%=      5-min Rain = 0
KWE2 191600Z 35020KT 06/M03 A3033 RMK A01 T00631034  RH  050%=      5-min Rain = 0
KWE2 191601Z 35018G23KT 06/M04 A3033 RMK A01 T00631035  RH  050%=      5-min Rain = 0
KWE2 191602Z 34019KT 06/M04 A3033 RMK A01 T00631035  RH  049%=      5-min Rain = 0
KWE2 191603Z 35018KT 06/M04 A3033 RMK A01 T00631035  RH  049%=      5-min Rain = 0
KWE2 191604Z 36017KT 06/M03 A3033 RMK A01 T00631034  RH  050%=      5-min Rain = 0
KWE2 191605Z 36019KT 06/M03 A3033 RMK A01 T00641034  RH  049%=      5-min Rain = 0
KWE2 191606Z 36017KT 07/M03 A3033 RMK A01 T00651034  RH  049%=      5-min Rain = 0
KWE2 191607Z 35018G23KT 07/M03 A3033 RMK A01 T00651033  RH  049%=      5-min Rain = 0
KWE2 191608Z 35020KT 07/M04 A3033 RMK A01 T00661035  RH  048%=      5-min Rain = 0
KWE2 191609Z 01020KT 07/M04 A3033 RMK A01 T00651036  RH  049%=      5-min Rain = 0
KWE2 191610Z 36017KT 07/M04 A3033 RMK A01 T00651035  RH  049%=      5-min Rain = 0
KWE2 191611Z 35017G23KT 07/M04 A3033 RMK A01 T00651035  RH  049%=      5-min Rain = 0
KWE2 191612Z 00015KT 07/M03 A3033 RMK A01 T00661034  RH  049%=      5-min Rain = 0
KWE2 191613Z 36016KT 07/M03 A3033 RMK A01 T00691032  RH  049%=      5-min Rain = 0
KWE2 191614Z 00016KT 07/M03 A3033 RMK A01 T00681034  RH  048%=      5-min Rain = 0
KWE2 191615Z 00018G23KT 07/M03 A3033 RMK A01 T00681034  RH  048%=      5-min Rain = 0
KWE2 191616Z 01021KT 07/M04 A3033 RMK A01 T00691036  RH  047%=      5-min Rain = 0
KWE2 191617Z 36020KT 07/M04 A3034 RMK A01 T00681036  RH  047%=      5-min Rain = 0
KWE2 191618Z 36019KT 07/M04 A3034 RMK A01 T00681035  RH  048%=      5-min Rain = 0
KWE2 191619Z 35019KT 07/M04 A3034 RMK A01 T00681035  RH  048%=      5-min Rain = 0
KWE2 191620Z 00020KT 07/M04 A3034 RMK A01 T00691035  RH  047%=      5-min Rain = 0
KWE2 191621Z 36018KT 07/M04 A3034 RMK A01 T00701036  RH  047%=      5-min Rain = 0
KWE2 191622Z 00017KT 07/M04 A3034 RMK A01 T00691036  RH  047%=      5-min Rain = 0
KWE2 191623Z 36020KT 07/M03 A3034 RMK A01 T00691034  RH  048%=      5-min Rain = 0
KWE2 191624Z 35022KT 07/M04 A3034 RMK A01 T00711035  RH  047%=      5-min Rain = 0
KWE2 191625Z 00019G24KT 07/M04 A3034 RMK A01 T00711037  RH  046%=      5-min Rain = 0
KWE2 191626Z 01018KT 07/M04 A3034 RMK A01 T00711035  RH  047%=      5-min Rain = 0
KWE2 191627Z 01019KT 07/M03 A3034 RMK A01 T00711034  RH  047%=      5-min Rain = 0
KWE2 191628Z 35020G25KT 07/M04 A3034 RMK A01 T00711035  RH  047%=      5-min Rain = 0
KWE2 191629Z 36020KT 07/M04 A3034 RMK A01 T00711036  RH  046%=      5-min Rain = 0
KWE2 191630Z 35017KT 07/M04 A3034 RMK A01 T00711035  RH  047%=      5-min Rain = 0
KWE2 191631Z 01020KT 07/M03 A3034 RMK A01 T00731034  RH  047%=      5-min Rain = 0
KWE2 191632Z 00019G24KT 07/M04 A3034 RMK A01 T00721035  RH  046%=      5-min Rain = 0
KWE2 191633Z 00017KT 07/M03 A3034 RMK A01 T00721034  RH  047%=      5-min Rain = 0
KWE2 191634Z 01018G24KT 07/M03 A3034 RMK A01 T00731034  RH  047%=      5-min Rain = 0
KWE2 191635Z 01021KT 07/M04 A3034 RMK A01 T00741035  RH  046%=      5-min Rain = 0
KWE2 191636Z 00020KT 07/M04 A3034 RMK A01 T00731036  RH  046%=      5-min Rain = 0
KWE2 191637Z 01019KT 07/M04 A3034 RMK A01 T00731035  RH  046%=      5-min Rain = 0
KWE2 191638Z 00017KT 07/M04 A3034 RMK A01 T00731035  RH  046%=      5-min Rain = 0
KWE2 191639Z 01019G25KT 07/M04 A3034 RMK A01 T00731035  RH  046%=      5-min Rain = 0
KWE2 191640Z 36020KT 07/M04 A3035 RMK A01 T00731035  RH  046%=      5-min Rain = 0
KWE2 191641Z 36016KT 07/M04 A3035 RMK A01 T00741035  RH  046%=      5-min Rain = 0
KWE2 191642Z 00017KT 07/M04 A3035 RMK A01 T00741035  RH  046%=      5-min Rain = 0
KWE2 191643Z 36014KT 08/M03 A3035 RMK A01 T00751034  RH  046%=      5-min Rain = 0
KWE2 191644Z 35015G20KT 08/M03 A3035 RMK A01 T00781030  RH  046%=      5-min Rain = 0
KWE2 191645Z 36019KT 08/M03 A3035 RMK A01 T00821032  RH  045%=      5-min Rain = 0
KWE2 191646Z 00020KT 08/M04 A3035 RMK A01 T00791037  RH  044%=      5-min Rain = 0
KWE2 191647Z 01021KT 08/M04 A3035 RMK A01 T00761037  RH  045%=      5-min Rain = 0
KWE2 191648Z 01017KT 08/M04 A3035 RMK A01 T00761036  RH  045%=      5-min Rain = 0
KWE2 191649Z 00019KT 08/M03 A3035 RMK A01 T00771034  RH  045%=      5-min Rain = 0
KWE2 191650Z 36019KT 08/M04 A3035 RMK A01 T00771036  RH  045%=      5-min Rain = 0
KWE2 191651Z 35019KT 08/M04 A3035 RMK A01 T00771036  RH  045%=      5-min Rain = 0
KWE2 191652Z 35017KT 08/M04 A3035 RMK A01 T00771035  RH  045%=      5-min Rain = 0
KWE2 191653Z 35018KT 08/M04 A3035 RMK A01 T00781035  RH  045%=      5-min Rain = 0
KWE2 191654Z 35019KT 08/M04 A3035 RMK A01 T00791035  RH  045%=      5-min Rain = 0
KWE2 191655Z 35016KT 08/M03 A3035 RMK A01 T00791034  RH  045%=      5-min Rain = 0
KWE2 191656Z 35016KT 08/M03 A3035 RMK A01 T00801034  RH  044%=      5-min Rain = 0
KWE2 191657Z 35020KT 08/M03 A3035 RMK A01 T00811034  RH  044%=      5-min Rain = 0
KWE2 191658Z 34018G23KT 08/M04 A3035 RMK A01 T00801036  RH  044%=      5-min Rain = 0
KWE2 191659Z 35018KT 08/M04 A3035 RMK A01 T00801035  RH  044%=      5-min Rain = 0
KWE2 191700Z 35019KT 08/M03 A3035 RMK A01 T00821034  RH  044%=      5-min Rain = 0
KWE2 191701Z 35017KT 08/M03 A3035 RMK A01 T00831034  RH  043%=      5-min Rain = 0
KWE2 191702Z 36018KT 08/M04 A3035 RMK A01 T00821036  RH  043%=      5-min Rain = 0
KWE2 191703Z 35018KT 08/M04 A3035 RMK A01 T00811036  RH  043%=      5-min Rain = 0
KWE2 191704Z 35020KT 08/M04 A3035 RMK A01 T00811036  RH  044%=      5-min Rain = 0
KWE2 191705Z 35018KT 08/M04 A3035 RMK A01 T00811036  RH  043%=      5-min Rain = 0
KWE2 191706Z 00018KT 08/M04 A3035 RMK A01 T00821035  RH  044%=      5-min Rain = 0
KWE2 191707Z 00017KT 08/M04 A3035 RMK A01 T00831036  RH  043%=      5-min Rain = 0
KWE2 191708Z 00015KT 08/M04 A3035 RMK A01 T00821035  RH  043%=      5-min Rain = 0
KWE2 191709Z 36015KT 08/M03 A3035 RMK A01 T00831033  RH  044%=      5-min Rain = 0
KWE2 191710Z 35015G20KT 08/M03 A3035 RMK A01 T00841034  RH  043%=      5-min Rain = 0
KWE2 191711Z 36015KT 08/M03 A3035 RMK A01 T00841032  RH  044%=      5-min Rain = 0
KWE2 191712Z 35018KT 09/M03 A3035 RMK A01 T00861033  RH  043%=      5-min Rain = 0
KWE2 191713Z 35017KT 09/M03 A3035 RMK A01 T00861034  RH  043%=      5-min Rain = 0
KWE2 191714Z 36017KT 08/M03 A3035 RMK A01 T00841034  RH  043%=      5-min Rain = 0
KWE2 191715Z 35019KT 08/M03 A3035 RMK A01 T00841034  RH  043%=      5-min Rain = 0
KWE2 191716Z 35017KT 08/M04 A3035 RMK A01 T00831035  RH  043%=      5-min Rain = 0
KWE2 191717Z 35017KT 08/M03 A3035 RMK A01 T00841034  RH  043%=      5-min Rain = 0
KWE2 191718Z 34017KT 09/M03 A3035 RMK A01 T00851034  RH  043%=      5-min Rain = 0
KWE2 191719Z 36017KT 09/M03 A3035 RMK A01 T00851034  RH  043%=      5-min Rain = 0
KWE2 191720Z 00015KT 09/M03 A3035 RMK A01 T00861033  RH  043%=      5-min Rain = 0
KWE2 191721Z 35017KT 09/M03 A3035 RMK A01 T00861033  RH  043%=      5-min Rain = 0
KWE2 191722Z 35015KT 09/M03 A3035 RMK A01 T00851034  RH  043%=      5-min Rain = 0
KWE2 191723Z 35015KT 09/M03 A3035 RMK A01 T00851033  RH  043%=      5-min Rain = 0
KWE2 191724Z 35017KT 09/M03 A3035 RMK A01 T00871032  RH  043%=      5-min Rain = 0
KWE2 191725Z 35015KT 09/M03 A3035 RMK A01 T00881032  RH  042%=      5-min Rain = 0
KWE2 191726Z 35016KT 09/M03 A3035 RMK A01 T00901032  RH  042%=      5-min Rain = 0
KWE2 191727Z 35017KT 09/M03 A3035 RMK A01 T00881033  RH  042%=      5-min Rain = 0
KWE2 191728Z 36018KT 09/M03 A3035 RMK A01 T00881033  RH  042%=      5-min Rain = 0
KWE2 191729Z 00015KT 09/M03 A3035 RMK A01 T00881032  RH  043%=      5-min Rain = 0
KWE2 191730Z 36014KT 09/M03 A3035 RMK A01 T00871032  RH  043%=      5-min Rain = 0
KWE2 191731Z 35018KT 09/M03 A3035 RMK A01 T00881032  RH  043%=      5-min Rain = 0
KWE2 191732Z 35017KT 09/M03 A3035 RMK A01 T00881034  RH  042%=      5-min Rain = 0
KWE2 191733Z 00015KT 09/M03 A3035 RMK A01 T00871033  RH  043%=      5-min Rain = 0
KWE2 191734Z 01016KT 09/M03 A3035 RMK A01 T00901030  RH  043%=      5-min Rain = 0
KWE2 191735Z 00015KT 09/M03 A3035 RMK A01 T00911031  RH  042%=      5-min Rain = 0
KWE2 191736Z 35017KT 09/M03 A3035 RMK A01 T00921030  RH  042%=      5-min Rain = 0
KWE2 191737Z 35017KT 09/M03 A3035 RMK A01 T00911031  RH  042%=      5-min Rain = 0
KWE2 191738Z 01017KT 09/M03 A3035 RMK A01 T00901031  RH  042%=      5-min Rain = 0
KWE2 191739Z 36014KT 09/M03 A3035 RMK A01 T00891031  RH  043%=      5-min Rain = 0
KWE2 191740Z 36013KT 09/M03 A3035 RMK A01 T00901028  RH  043%=      5-min Rain = 0
KWE2 191741Z 01011KT 09/M03 A3035 RMK A01 T00921027  RH  043%=      5-min Rain = 0
KWE2 191742Z 36014KT 09/M03 A3035 RMK A01 T00931027  RH  043%=      5-min Rain = 0
KWE2 191743Z 35016KT 09/M03 A3035 RMK A01 T00941028  RH  042%=      5-min Rain = 0
KWE2 191744Z 35016KT 09/M03 A3035 RMK A01 T00921031  RH  042%=      5-min Rain = 0
KWE2 191745Z 35016KT 09/M03 A3035 RMK A01 T00921030  RH  042%=      5-min Rain = 0
KWE2 191746Z 00016G21KT 09/M03 A3035 RMK A01 T00911031  RH  042%=      5-min Rain = 0
KWE2 191747Z 35017KT 09/M03 A3035 RMK A01 T00921029  RH  042%=      5-min Rain = 0
KWE2 191748Z 34017KT 09/M03 A3035 RMK A01 T00941030  RH  041%=      5-min Rain = 0
KWE2 191749Z 35017KT 09/M03 A3035 RMK A01 T00931031  RH  042%=      5-min Rain = 0
KWE2 191750Z 34017KT 09/M03 A3035 RMK A01 T00931031  RH  042%=      5-min Rain = 0
KWE2 191751Z 35017KT 09/M03 A3035 RMK A01 T00931030  RH  042%=      5-min Rain = 0
KWE2 191752Z 00013KT 09/M03 A3035 RMK A01 T00931030  RH  042%=      5-min Rain = 0
KWE2 191753Z 01014KT 09/M03 A3035 RMK A01 T00931029  RH  042%=      5-min Rain = 0
KWE2 191754Z 00018KT 09/M03 A3034 RMK A01 T00941028  RH  042%=      5-min Rain = 0
KWE2 191755Z 36018KT 09/M03 A3034 RMK A01 T00941029  RH  042%=      5-min Rain = 0
KWE2 191756Z 00016KT 09/M03 A3034 RMK A01 T00931030  RH  042%=      5-min Rain = 0
KWE2 191757Z 35018KT 09/M03 A3034 RMK A01 T00931029  RH  042%=      5-min Rain = 0
KWE2 191758Z 36018KT 09/M03 A3034 RMK A01 T00941030  RH  041%=      5-min Rain = 0
KWE2 191759Z 00014KT 09/M03 A3034 RMK A01 T00921031  RH  042%=      5-min Rain = 0
KWE2 191800Z 36015KT 09/M03 A3034 RMK A01 T00911028  RH  043%=      5-min Rain = 0
KWE2 191801Z 36017KT 10/M03 A3034 RMK A01 T00951027  RH  042%=      5-min Rain = 0
KWE2 191802Z 00017KT 10/M03 A3034 RMK A01 T00951029  RH  042%=      5-min Rain = 0
KWE2 191803Z 35017KT 10/M03 A3034 RMK A01 T00961028  RH  042%=      5-min Rain = 0
KWE2 191804Z 36016G21KT 10/M03 A3034 RMK A01 T00951031  RH  041%=      5-min Rain = 0
KWE2 191805Z 35017KT 09/M03 A3034 RMK A01 T00941030  RH  042%=      5-min Rain = 0
KWE2 191806Z 00016KT 10/M03 A3034 RMK A01 T00961028  RH  042%=      5-min Rain = 0
KWE2 191807Z 01018KT 10/M03 A3034 RMK A01 T00971029  RH  041%=      5-min Rain = 0
KWE2 191808Z 00015KT 10/M03 A3034 RMK A01 T00961029  RH  041%=      5-min Rain = 0
KWE2 191809Z 35016KT 10/M03 A3034 RMK A01 T00981028  RH  041%=      5-min Rain = 0
KWE2 191810Z 36015KT 10/M03 A3034 RMK A01 T00961030  RH  041%=      5-min Rain = 0
KWE2 191811Z 00017KT 10/M03 A3034 RMK A01 T00971029  RH  041%=      5-min Rain = 0
KWE2 191812Z 36018KT 10/M03 A3034 RMK A01 T00981028  RH  041%=      5-min Rain = 0
KWE2 191813Z 00015KT 10/M03 A3034 RMK A01 T00991030  RH  040%=      5-min Rain = 0
KWE2 191814Z 36017KT 10/M03 A3034 RMK A01 T00991029  RH  041%=      5-min Rain = 0
KWE2 191815Z 36017KT 10/M03 A3034 RMK A01 T00991030  RH  040%=      5-min Rain = 0
KWE2 191816Z 36015KT 10/M03 A3034 RMK A01 T00971031  RH  040%=      5-min Rain = 0
KWE2 191817Z 36014KT 10/M03 A3034 RMK A01 T00961031  RH  041%=      5-min Rain = 0
KWE2 191818Z 35018G23KT 10/M03 A3034 RMK A01 T00961030  RH  041%=      5-min Rain = 0
KWE2 191819Z 35018G24KT 10/M03 A3034 RMK A01 T00981029  RH  041%=      5-min Rain = 0
KWE2 191820Z 35015KT 10/M03 A3034 RMK A01 T00991029  RH  040%=      5-min Rain = 0
KWE2 191821Z 36016KT 10/M03 A3034 RMK A01 T01001029  RH  040%=      5-min Rain = 0
KWE2 191822Z 35014KT 10/M03 A3034 RMK A01 T00991030  RH  040%=      5-min Rain = 0
KWE2 191823Z 35015KT 10/M03 A3034 RMK A01 T00981030  RH  040%=      5-min Rain = 0
KWE2 191824Z 35016KT 10/M03 A3034 RMK A01 T01001029  RH  040%=      5-min Rain = 0
KWE2 191825Z 35018KT 10/M03 A3034 RMK A01 T01001030  RH  040%=      5-min Rain = 0
KWE2 191826Z 35016KT 10/M03 A3034 RMK A01 T00991031  RH  040%=      5-min Rain = 0
KWE2 191827Z 34017KT 10/M03 A3034 RMK A01 T00991030  RH  040%=      5-min Rain = 0
KWE2 191828Z 34014KT 10/M03 A3034 RMK A01 T01001030  RH  040%=      5-min Rain = 0
KWE2 191829Z 34016KT 10/M03 A3034 RMK A01 T01011029  RH  040%=      5-min Rain = 0
KWE2 191830Z 36017KT 10/M03 A3034 RMK A01 T01011030  RH  040%=      5-min Rain = 0
KWE2 191831Z 00019KT 10/M03 A3034 RMK A01 T01011029  RH  040%=      5-min Rain = 0
KWE2 191832Z 36018KT 10/M03 A3034 RMK A01 T01001030  RH  040%=      5-min Rain = 0
KWE2 191833Z 36015KT 10/M03 A3034 RMK A01 T01001029  RH  040%=      5-min Rain = 0
KWE2 191834Z 35015KT 10/M03 A3034 RMK A01 T01011029  RH  040%=      5-min Rain = 0
KWE2 191835Z 36013KT 10/M03 A3034 RMK A01 T00991031  RH  040%=      5-min Rain = 0
KWE2 191836Z 36010KT 10/M03 A3034 RMK A01 T00981030  RH  041%=      5-min Rain = 0
KWE2 191837Z 35013G18KT 10/M03 A3034 RMK A01 T00991028  RH  041%=      5-min Rain = 0
KWE2 191838Z 00019KT 10/M03 A3033 RMK A01 T01021028  RH  040%=      5-min Rain = 0
KWE2 191839Z 01015KT 10/M03 A3033 RMK A01 T01001031  RH  040%=      5-min Rain = 0
KWE2 191840Z 00016KT 10/M03 A3033 RMK A01 T00981029  RH  041%=      5-min Rain = 0
KWE2 191841Z 35015KT 10/M03 A3033 RMK A01 T01011028  RH  040%=      5-min Rain = 0
KWE2 191842Z 36014KT 10/M03 A3033 RMK A01 T01011028  RH  040%=      5-min Rain = 0
KWE2 191843Z 01012KT 10/M03 A3033 RMK A01 T01011027  RH  040%=      5-min Rain = 0
KWE2 191844Z 35015G21KT 10/M03 A3033 RMK A01 T01021026  RH  040%=      5-min Rain = 0
KWE2 191845Z 35017KT 11/M03 A3033 RMK A01 T01051027  RH  040%=      5-min Rain = 0
KWE2 191846Z 35015KT 10/M03 A3033 RMK A01 T01041029  RH  039%=      5-min Rain = 0
KWE2 191847Z 34014KT 10/M03 A3033 RMK A01 T01031029  RH  040%=      5-min Rain = 0
KWE2 191848Z 34012G17KT 10/M03 A3033 RMK A01 T01031028  RH  040%=      5-min Rain = 0
KWE2 191849Z 35018KT 10/M03 A3033 RMK A01 T01031027  RH  040%=      5-min Rain = 0
KWE2 191850Z 35014KT 10/M03 A3033 RMK A01 T01031027  RH  040%=      5-min Rain = 0
KWE2 191851Z 34012G17KT 10/M03 A3033 RMK A01 T01031027  RH  040%=      5-min Rain = 0
KWE2 191852Z 34016KT 10/M03 A3033 RMK A01 T01041027  RH  040%=      5-min Rain = 0
KWE2 191853Z 34014KT 11/M03 A3033 RMK A01 T01051028  RH  039%=      5-min Rain = 0
KWE2 191854Z 00015KT 10/M03 A3033 RMK A01 T01041028  RH  040%=      5-min Rain = 0
KWE2 191855Z 35015KT 11/M03 A3032 RMK A01 T01051027  RH  039%=      5-min Rain = 0
KWE2 191856Z 32015KT 11/M03 A3032 RMK A01 T01051028  RH  039%=      5-min Rain = 0
KWE2 191857Z 32014KT 11/M03 A3032 RMK A01 T01071028  RH  039%=      5-min Rain = 0
KWE2 191858Z 32016KT 11/M03 A3032 RMK A01 T01071028  RH  038%=      5-min Rain = 0
KWE2 191859Z 34012KT 11/M03 A3032 RMK A01 T01071028  RH  039%=      5-min Rain = 0
KWE2 191900Z 34016KT 11/M03 A3032 RMK A01 T01081028  RH  038%=      5-min Rain = 0
KWE2 191901Z 33014KT 11/M03 A3032 RMK A01 T01071029  RH  038%=      5-min Rain = 0
KWE2 191902Z 35014KT 11/M03 A3032 RMK A01 T01061029  RH  039%=      5-min Rain = 0
KWE2 191903Z 35012KT 11/M03 A3032 RMK A01 T01071026  RH  039%=      5-min Rain = 0
KWE2 191904Z 33011KT 11/M03 A3032 RMK A01 T01111026  RH  038%=      5-min Rain = 0
KWE2 191905Z 32016KT 11/M03 A3032 RMK A01 T01131027  RH  038%=      5-min Rain = 0
KWE2 191906Z 31014KT 11/M03 A3032 RMK A01 T01111028  RH  037%=      5-min Rain = 0
KWE2 191907Z 33012KT 11/M03 A3032 RMK A01 T01101029  RH  038%=      5-min Rain = 0
KWE2 191908Z 33012KT 11/M03 A3032 RMK A01 T01081029  RH  038%=      5-min Rain = 0
KWE2 191909Z 33015KT 11/M03 A3032 RMK A01 T01071030  RH  038%=      5-min Rain = 0
KWE2 191910Z 33015KT 11/M03 A3032 RMK A01 T01091031  RH  038%=      5-min Rain = 0
KWE2 191911Z 33015KT 11/M03 A3032 RMK A01 T01111031  RH  037%=      5-min Rain = 0
KWE2 191912Z 33016KT 11/M03 A3032 RMK A01 T01101032  RH  037%=      5-min Rain = 0
KWE2 191913Z 32016KT 11/M03 A3032 RMK A01 T01091031  RH  037%=      5-min Rain = 0
KWE2 191914Z 33015KT 11/M03 A3032 RMK A01 T01091031  RH  037%=      5-min Rain = 0
KWE2 191915Z 33012KT 11/M03 A3032 RMK A01 T01091030  RH  038%=      5-min Rain = 0
KWE2 191916Z 31013KT 11/M03 A3032 RMK A01 T01101030  RH  037%=      5-min Rain = 0
KWE2 191917Z 34012KT 11/M03 A3032 RMK A01 T01101030  RH  037%=      5-min Rain = 0
KWE2 191918Z 34016KT 11/M03 A3032 RMK A01 T01121029  RH  037%=      5-min Rain = 0
KWE2 191919Z 35016KT 11/M03 A3032 RMK A01 T01131030  RH  037%=      5-min Rain = 0
KWE2 191920Z 34017KT 11/M03 A3032 RMK A01 T01141029  RH  037%=      5-min Rain = 0
KWE2 191921Z 34013KT 11/M03 A3032 RMK A01 T01121031  RH  037%=      5-min Rain = 0
KWE2 191922Z 34011KT 11/M03 A3032 RMK A01 T01111029  RH  037%=      5-min Rain = 0
KWE2 191923Z 33010KT 11/M03 A3032 RMK A01 T01111031  RH  037%=      5-min Rain = 0
KWE2 191924Z 32011KT 11/M03 A3032 RMK A01 T01101031  RH  037%=      5-min Rain = 0
KWE2 191925Z 32011KT 11/M03 A3031 RMK A01 T01101030  RH  037%=      5-min Rain = 0
KWE2 191926Z 32008KT 11/M03 A3031 RMK A01 T01101030  RH  037%=      5-min Rain = 0
KWE2 191927Z 34007KT 11/M03 A3031 RMK A01 T01111029  RH  037%=      5-min Rain = 0
KWE2 191928Z 33010G15KT 11/M03 A3031 RMK A01 T01131028  RH  037%=      5-min Rain = 0
KWE2 191929Z 32012KT 12/M03 A3031 RMK A01 T01161029  RH  036%=      5-min Rain = 0
KWE2 191930Z 34015KT 12/M03 A3031 RMK A01 T01191028  RH  036%=      5-min Rain = 0
KWE2 191931Z 35015KT 12/M03 A3031 RMK A01 T01191031  RH  035%=      5-min Rain = 0
KWE2 191932Z 34012KT 12/M03 A3031 RMK A01 T01171031  RH  035%=      5-min Rain = 0
KWE2 191933Z 34013KT 12/M03 A3031 RMK A01 T01161031  RH  036%=      5-min Rain = 0
KWE2 191934Z 34013KT 12/M03 A3031 RMK A01 T01151030  RH  036%=      5-min Rain = 0
KWE2 191935Z 36015KT 12/M03 A3031 RMK A01 T01151029  RH  037%=      5-min Rain = 0
KWE2 191936Z 36011KT 11/M03 A3031 RMK A01 T01141030  RH  037%=      5-min Rain = 0
KWE2 191937Z 36014KT 11/M03 A3031 RMK A01 T01121030  RH  037%=      5-min Rain = 0
KWE2 191938Z 34018KT 11/M03 A303 RMK A01 T01141029  RH  037%=      5-min Rain = 0
KWE2 191939Z 35017KT 12/M03 A3031 RMK A01 T01151031  RH  036%=      5-min Rain = 0
KWE2 191940Z 36014KT 12/M03 A303 RMK A01 T01151030  RH  036%=      5-min Rain = 0
KWE2 191941Z 00012KT 11/M03 A303 RMK A01 T01141030  RH  036%=      5-min Rain = 0
KWE2 191942Z 35010KT 12/M03 A303 RMK A01 T01151028  RH  037%=      5-min Rain = 0
KWE2 191943Z 33011KT 12/M03 A303 RMK A01 T01161028  RH  036%=      5-min Rain = 0
KWE2 191944Z 34015KT 12/M03 A303 RMK A01 T01161029  RH  036%=      5-min Rain = 0
KWE2 191945Z 33014G21KT 12/M03 A303 RMK A01 T01171030  RH  036%=      5-min Rain = 0
KWE2 191946Z 34013KT 11/M03 A303 RMK A01 T01131032  RH  036%=      5-min Rain = 0
KWE2 191947Z 34015KT 11/M03 A303 RMK A01 T01131030  RH  037%=      5-min Rain = 0
KWE2 191948Z 35011KT 11/M03 A3031 RMK A01 T01141029  RH  037%=      5-min Rain = 0
KWE2 191949Z 34014G19KT 12/M03 A303 RMK A01 T01171027  RH  036%=      5-min Rain = 0
KWE2 191950Z 35014G19KT 12/M03 A303 RMK A01 T01171030  RH  036%=      5-min Rain = 0
KWE2 191951Z 34012G17KT 11/M03 A303 RMK A01 T01141029  RH  037%=      5-min Rain = 0
KWE2 191952Z 00014KT 12/M03 A303 RMK A01 T01161028  RH  036%=      5-min Rain = 0
KWE2 191953Z 36015KT 12/M03 A303 RMK A01 T01161029  RH  036%=      5-min Rain = 0
KWE2 191954Z 35017KT 12/M03 A303 RMK A01 T01161030  RH  036%=      5-min Rain = 0
KWE2 191955Z 35016KT 12/M03 A303 RMK A01 T01171029  RH  036%=      5-min Rain = 0
KWE2 191956Z 34016KT 12/M03 A303 RMK A01 T01171029  RH  036%=      5-min Rain = 0
KWE2 191957Z 34016KT 12/M03 A303 RMK A01 T01161030  RH  036%=      5-min Rain = 0
KWE2 191958Z 34016KT 12/M03 A303 RMK A01 T01161030  RH  036%=      5-min Rain = 0
KWE2 191959Z 35014KT 12/M03 A303 RMK A01 T01161029  RH  036%=      5-min Rain = 0
KWE2 192000Z 33011KT 12/M03 A303 RMK A01 T01161029  RH  036%=      5-min Rain = 0
KWE2 192001Z 32011KT 11/M03 A303 RMK A01 T01141029  RH  037%=      5-min Rain = 0
KWE2 192002Z 33010KT 12/M03 A303 RMK A01 T01151028  RH  037%=      5-min Rain = 0
KWE2 192003Z 34012KT 12/M03 A303 RMK A01 T01161027  RH  037%=      5-min Rain = 0
KWE2 192004Z 33013KT 12/M03 A303 RMK A01 T01151029  RH  036%=      5-min Rain = 0
KWE2 192005Z 36012KT 12/M03 A303 RMK A01 T01151028  RH  037%=      5-min Rain = 0
KWE2 192006Z 34010KT 12/M03 A303 RMK A01 T01151026  RH  037%=      5-min Rain = 0
KWE2 192007Z 36009KT 12/M02 A303 RMK A01 T01201023  RH  037%=      5-min Rain = 0
KWE2 192008Z 34010KT 12/M03 A303 RMK A01 T01211025  RH  036%=      5-min Rain = 0
KWE2 192009Z 34012KT 12/M03 A303 RMK A01 T01221026  RH  036%=      5-min Rain = 0
KWE2 192010Z 35015KT 12/M03 A303 RMK A01 T01231027  RH  035%=      5-min Rain = 0
KWE2 192011Z 35014KT 12/M03 A303 RMK A01 T01211028  RH  035%=      5-min Rain = 0
KWE2 192012Z 33012KT 12/M03 A303 RMK A01 T01191029  RH  036%=      5-min Rain = 0
KWE2 192013Z 34014KT 12/M03 A303 RMK A01 T01171029  RH  036%=      5-min Rain = 0
KWE2 192014Z 34010KT 12/M03 A303 RMK A01 T01151030  RH  036%=      5-min Rain = 0
KWE2 192015Z 35009KT 11/M03 A303 RMK A01 T01141029  RH  037%=      5-min Rain = 0
KWE2 192016Z 33012KT 12/M03 A303 RMK A01 T01171025  RH  037%=      5-min Rain = 0
KWE2 192017Z 33011KT 12/M03 A3029 RMK A01 T01201029  RH  035%=      5-min Rain = 0
KWE2 192018Z 34009KT 12/M03 A3029 RMK A01 T01151031  RH  036%=      5-min Rain = 0
KWE2 192019Z 33011KT 12/M03 A3029 RMK A01 T01171029  RH  036%=      5-min Rain = 0
KWE2 192020Z 34014KT 12/M03 A3029 RMK A01 T01181031  RH  035%=      5-min Rain = 0
KWE2 192021Z 33016KT 12/M03 A3029 RMK A01 T01181031  RH  035%=      5-min Rain = 0
KWE2 192022Z 35012G17KT 12/M03 A3029 RMK A01 T01191031  RH  035%=      5-min Rain = 0
KWE2 192023Z 33012KT 12/M03 A3029 RMK A01 T01201030  RH  035%=      5-min Rain = 0
KWE2 192024Z 33011KT 12/M03 A3029 RMK A01 T01201029  RH  035%=      5-min Rain = 0
KWE2 192025Z 33010KT 12/M03 A3029 RMK A01 T01201031  RH  035%=      5-min Rain = 0
KWE2 192026Z 31010KT 12/M03 A3029 RMK A01 T01181031  RH  035%=      5-min Rain = 0
KWE2 192027Z 30009KT 12/M03 A3029 RMK A01 T01181031  RH  035%=      5-min Rain = 0
KWE2 192028Z 29008KT 12/M03 A3029 RMK A01 T01181032  RH  035%=      5-min Rain = 0
KWE2 192029Z 31007KT 12/M03 A3029 RMK A01 T01171032  RH  035%=      5-min Rain = 0
KWE2 192030Z 34007KT 12/M03 A3029 RMK A01 T01181030  RH  035%=      5-min Rain = 0
KWE2 192031Z 32007KT 12/M03 A3029 RMK A01 T01191029  RH  036%=      5-min Rain = 0
KWE2 192032Z 32010KT 12/M03 A3029 RMK A01 T01201029  RH  035%=      5-min Rain = 0
KWE2 192033Z 33012KT 12/M03 A3029 RMK A01 T01211030  RH  035%=      5-min Rain = 0
KWE2 192034Z 33011KT 12/M03 A3029 RMK A01 T01211031  RH  034%=      5-min Rain = 0
KWE2 192035Z 34011KT 12/M03 A3029 RMK A01 T01231030  RH  034%=      5-min Rain = 0
KWE2 192036Z 33008KT 12/M03 A3028 RMK A01 T01221031  RH  034%=      5-min Rain = 0
KWE2 192037Z 34013KT 12/M03 A3028 RMK A01 T01211031  RH  035%=      5-min Rain = 0
KWE2 192038Z 34011KT 12/M03 A3028 RMK A01 T01211031  RH  034%=      5-min Rain = 0
KWE2 192039Z 35009KT 12/M03 A3028 RMK A01 T01201033  RH  034%=      5-min Rain = 0
KWE2 192040Z 01009KT 12/M03 A3028 RMK A01 T01191027  RH  036%=      5-min Rain = 0
KWE2 192041Z 01010G15KT 12/M03 A3028 RMK A01 T01211026  RH  036%=      5-min Rain = 0
KWE2 192042Z 00011KT 12/M03 A3028 RMK A01 T01221028  RH  035%=      5-min Rain = 0
KWE2 192043Z 36011KT 12/M03 A3028 RMK A01 T01211028  RH  035%=      5-min Rain = 0
KWE2 192044Z 35014KT 12/M03 A3028 RMK A01 T01221029  RH  035%=      5-min Rain = 0
KWE2 192045Z 35013KT 12/M03 A3028 RMK A01 T01221031  RH  034%=      5-min Rain = 0
KWE2 192046Z 35012KT 12/M03 A3028 RMK A01 T01211031  RH  034%=      5-min Rain = 0
KWE2 192047Z 35012KT 12/M03 A3028 RMK A01 T01211031  RH  034%=      5-min Rain = 0
KWE2 192048Z 35009KT 12/M03 A3028 RMK A01 T01231030  RH  034%=      5-min Rain = 0
KWE2 192049Z 34010KT 13/M03 A3028 RMK A01 T01251028  RH  034%=      5-min Rain = 0
KWE2 192050Z 35007KT 13/M03 A3028 RMK A01 T01251031  RH  034%=      5-min Rain = 0
KWE2 192051Z 33009KT 12/M03 A3028 RMK A01 T01231030  RH  034%=      5-min Rain = 0
KWE2 192052Z 33008KT 12/M03 A3028 RMK A01 T01231031  RH  034%=      5-min Rain = 0
KWE2 192053Z 33010KT 12/M03 A3028 RMK A01 T01231030  RH  034%=      5-min Rain = 0
KWE2 192054Z 34010KT 12/M03 A3028 RMK A01 T01231032  RH  034%=      5-min Rain = 0
KWE2 192055Z 35007KT 12/M03 A3028 RMK A01 T01211033  RH  034%=      5-min Rain = 0
KWE2 192056Z 33009KT 12/M03 A3028 RMK A01 T01211032  RH  034%=      5-min Rain = 0
KWE2 192057Z 32013KT 12/M03 A3028 RMK A01 T01221031  RH  034%=      5-min Rain = 0
KWE2 192058Z 32011KT 12/M03 A3028 RMK A01 T01241032  RH  034%=      5-min Rain = 0
KWE2 192059Z 33008KT 12/M03 A3027 RMK A01 T01231032  RH  034%=      5-min Rain = 0
KWE2 192100Z 34010KT 13/M03 A3027 RMK A01 T01261028  RH  034%=      5-min Rain = 0
KWE2 192101Z 35011KT 13/M03 A3027 RMK A01 T01281030  RH  033%=      5-min Rain = 0
KWE2 192102Z 01008KT 13/M03 A3027 RMK A01 T01251032  RH  033%=      5-min Rain = 0
KWE2 192103Z 35007KT 12/M03 A3027 RMK A01 T01231032  RH  034%=      5-min Rain = 0
KWE2 192104Z 36008KT 12/M03 A3027 RMK A01 T01231033  RH  034%=      5-min Rain = 0
KWE2 192105Z 34011G17KT 12/M03 A3027 RMK A01 T01241033  RH  033%=      5-min Rain = 0
KWE2 192106Z 32012KT 13/M04 A3027 RMK A01 T01251036  RH  032%=      5-min Rain = 0
KWE2 192107Z 34015KT 13/M04 A3027 RMK A01 T01251038  RH  032%=      5-min Rain = 0
KWE2 192108Z 33015KT 13/M04 A3027 RMK A01 T01251037  RH  032%=      5-min Rain = 0
KWE2 192109Z 33014KT 13/M04 A3027 RMK A01 T01251036  RH  032%=      5-min Rain = 0
KWE2 192110Z 33014KT 13/M04 A3027 RMK A01 T01261037  RH  032%=      5-min Rain = 0
KWE2 192111Z 32015KT 13/M04 A3027 RMK A01 T01271036  RH  032%=      5-min Rain = 0
KWE2 192112Z 32015KT 13/M04 A3027 RMK A01 T01271037  RH  032%=      5-min Rain = 0
KWE2 192113Z 32014KT 13/M04 A3027 RMK A01 T01271037  RH  032%=      5-min Rain = 0
KWE2 192114Z 33014KT 13/M04 A3027 RMK A01 T01261037  RH  032%=      5-min Rain = 0
KWE2 192115Z 33012KT 13/M04 A3027 RMK A01 T01261037  RH  032%=      5-min Rain = 0
KWE2 192116Z 31011KT 12/M04 A3027 RMK A01 T01241038  RH  032%=      5-min Rain = 0
KWE2 192117Z 31011KT 12/M04 A3027 RMK A01 T01241038  RH  032%=      5-min Rain = 0
KWE2 192118Z 31010KT 12/M04 A3027 RMK A01 T01231038  RH  032%=      5-min Rain = 0
KWE2 192119Z 32011KT 12/M04 A3027 RMK A01 T01241038  RH  032%=      5-min Rain = 0
KWE2 192120Z 33012KT 13/M04 A3027 RMK A01 T01261036  RH  032%=      5-min Rain = 0
KWE2 192121Z 33012KT 13/M04 A3027 RMK A01 T01271035  RH  032%=      5-min Rain = 0
KWE2 192122Z 32011KT 13/M04 A3027 RMK A01 T01281036  RH  032%=      5-min Rain = 0
KWE2 192123Z 32013KT 13/M04 A3027 RMK A01 T01261037  RH  032%=      5-min Rain = 0
KWE2 192124Z 31013KT 13/M04 A3027 RMK A01 T01271035  RH  032%=      5-min Rain = 0
KWE2 192125Z 32012KT 13/M04 A3027 RMK A01 T01271036  RH  032%=      5-min Rain = 0
KWE2 192126Z 35010KT 13/M03 A3027 RMK A01 T01291033  RH  032%=      5-min Rain = 0
KWE2 192127Z 33009KT 13/M03 A3027 RMK A01 T01301034  RH  032%=      5-min Rain = 0
KWE2 192128Z 32011KT 13/M04 A3027 RMK A01 T01301035  RH  032%=      5-min Rain = 0
KWE2 192129Z 34009KT 13/M04 A3027 RMK A01 T01291039  RH  031%=      5-min Rain = 0
KWE2 192130Z 34010KT 13/M04 A3027 RMK A01 T01271037  RH  032%=      5-min Rain = 0
KWE2 192131Z 33010KT 13/M04 A3027 RMK A01 T01271037  RH  032%=      5-min Rain = 0
KWE2 192132Z 30011KT 13/M04 A3027 RMK A01 T01281035  RH  032%=      5-min Rain = 0
KWE2 192133Z 31013KT 13/M04 A3027 RMK A01 T01281035  RH  032%=      5-min Rain = 0
KWE2 192134Z 30010KT 13/M04 A3027 RMK A01 T01261036  RH  032%=      5-min Rain = 0
KWE2 192135Z 30012KT 13/M03 A3027 RMK A01 T01261034  RH  033%=      5-min Rain = 0
KWE2 192136Z 31011KT 13/M03 A3027 RMK A01 T01291034  RH  032%=      5-min Rain = 0
KWE2 192137Z 32010KT 13/M03 A3027 RMK A01 T01301034  RH  032%=      5-min Rain = 0
KWE2 192138Z 32010KT 13/M04 A3027 RMK A01 T01291037  RH  031%=      5-min Rain = 0
KWE2 192139Z 31010KT 13/M04 A3027 RMK A01 T01281037  RH  032%=      5-min Rain = 0
KWE2 192140Z 32011KT 13/M04 A3027 RMK A01 T01271037  RH  032%=      5-min Rain = 0
KWE2 192141Z 34014KT 13/M04 A3027 RMK A01 T01271036  RH  032%=      5-min Rain = 0
KWE2 192142Z 34011KT 13/M04 A3027 RMK A01 T01281036  RH  032%=      5-min Rain = 0
KWE2 192143Z 33010KT 13/M04 A3027 RMK A01 T01301035  RH  032%=      5-min Rain = 0
KWE2 192144Z 31013KT 13/M04 A3027 RMK A01 T01311036  RH  031%=      5-min Rain = 0
KWE2 192145Z 32012KT 13/M04 A3027 RMK A01 T01301040  RH  030%=      5-min Rain = 0
KWE2 192146Z 32011KT 13/M04 A3027 RMK A01 T01281041  RH  031%=      5-min Rain = 0
KWE2 192147Z 32010KT 13/M04 A3027 RMK A01 T01281040  RH  031%=      5-min Rain = 0
KWE2 192148Z 32010KT 13/M04 A3027 RMK A01 T01281039  RH  031%=      5-min Rain = 0
KWE2 192149Z 31012KT 13/M04 A3027 RMK A01 T01281037  RH  031%=      5-min Rain = 0
KWE2 192150Z 32011KT 13/M04 A3027 RMK A01 T01291036  RH  032%=      5-min Rain = 0
KWE2 192151Z 32010KT 13/M03 A3027 RMK A01 T01281034  RH  032%=      5-min Rain = 0
KWE2 192152Z 31009KT 13/M03 A3027 RMK A01 T01291034  RH  032%=      5-min Rain = 0
KWE2 192153Z 32008KT 13/M04 A3027 RMK A01 T01281035  RH  032%=      5-min Rain = 0
KWE2 192154Z 33008KT 13/M04 A3027 RMK A01 T01271035  RH  032%=      5-min Rain = 0
KWE2 192155Z 32008KT 13/M04 A3027 RMK A01 T01271037  RH  032%=      5-min Rain = 0
KWE2 192156Z 31010KT 13/M04 A3026 RMK A01 T01281036  RH  032%=      5-min Rain = 0
KWE2 192157Z 33013KT 13/M04 A3026 RMK A01 T01301039  RH  031%=      5-min Rain = 0
KWE2 192158Z 33010KT 13/M04 A3027 RMK A01 T01301044  RH  029%=      5-min Rain = 0
KWE2 192159Z 34010KT 13/M04 A3026 RMK A01 T01301043  RH  030%=      5-min Rain = 0
KWE2 192200Z 34013KT 13/M04 A3026 RMK A01 T01311042  RH  030%=      5-min Rain = 0
KWE2 192201Z 34014KT 13/M04 A3026 RMK A01 T01301043  RH  030%=      5-min Rain = 0
KWE2 192202Z 34013KT 13/M04 A3026 RMK A01 T01301043  RH  030%=      5-min Rain = 0
KWE2 192203Z 34014KT 13/M04 A3026 RMK A01 T01301042  RH  030%=      5-min Rain = 0
KWE2 192204Z 33012KT 13/M04 A3026 RMK A01 T01291042  RH  030%=      5-min Rain = 0
KWE2 192205Z 34010KT 13/M04 A3026 RMK A01 T01281040  RH  031%=      5-min Rain = 0
KWE2 192206Z 34011KT 13/M04 A3026 RMK A01 T01281040  RH  031%=      5-min Rain = 0
KWE2 192207Z 33012KT 13/M04 A3026 RMK A01 T01281040  RH  031%=      5-min Rain = 0
KWE2 192208Z 34010KT 13/M04 A3026 RMK A01 T01281039  RH  031%=      5-min Rain = 0
KWE2 192209Z 35009KT 13/M04 A3026 RMK A01 T01291038  RH  031%=      5-min Rain = 0
KWE2 192210Z 35010KT 13/M04 A3026 RMK A01 T01301039  RH  031%=      5-min Rain = 0
KWE2 192211Z 36011KT 13/M04 A3026 RMK A01 T01291039  RH  031%=      5-min Rain = 0
KWE2 192212Z 35009KT 13/M04 A3026 RMK A01 T01281040  RH  031%=      5-min Rain = 0
KWE2 192213Z 34011KT 13/M04 A3026 RMK A01 T01281040  RH  031%=      5-min Rain = 0
KWE2 192214Z 34011KT 13/M04 A3026 RMK A01 T01281041  RH  031%=      5-min Rain = 0
KWE2 192215Z 33012KT 13/M04 A3026 RMK A01 T01281040  RH  031%=      5-min Rain = 0
KWE2 192216Z 33013KT 13/M04 A3026 RMK A01 T01281040  RH  031%=      5-min Rain = 0
KWE2 192217Z 32010KT 13/M04 A3026 RMK A01 T01281042  RH  030%=      5-min Rain = 0
KWE2 192218Z 31008KT 13/M05 A3026 RMK A01 T01291045  RH  030%=      5-min Rain = 0
KWE2 192219Z 31009KT 13/M04 A3026 RMK A01 T01291042  RH  030%=      5-min Rain = 0
KWE2 192220Z 32013KT 13/M04 A3026 RMK A01 T01301042  RH  030%=      5-min Rain = 0
KWE2 192221Z 31012KT 13/M04 A3026 RMK A01 T01311044  RH  029%=      5-min Rain = 0
KWE2 192222Z 31013KT 13/M05 A3026 RMK A01 T01301045  RH  029%=      5-min Rain = 0
KWE2 192223Z 32011KT 13/M04 A3026 RMK A01 T01291043  RH  030%=      5-min Rain = 0
KWE2 192224Z 33009KT 13/M04 A3026 RMK A01 T01301042  RH  030%=      5-min Rain = 0
KWE2 192225Z 33007KT 13/M04 A3026 RMK A01 T01291042  RH  030%=      5-min Rain = 0
KWE2 192226Z 34008KT 13/M04 A3026 RMK A01 T01301040  RH  030%=      5-min Rain = 0
KWE2 192227Z 35007KT 13/M04 A3026 RMK A01 T01301039  RH  031%=      5-min Rain = 0
KWE2 192228Z 35006KT 13/M04 A3026 RMK A01 T01291040  RH  031%=      5-min Rain = 0
KWE2 192229Z 34006KT 13/M04 A3026 RMK A01 T01271041  RH  031%=      5-min Rain = 0
KWE2 192230Z 35005KT 13/M04 A3026 RMK A01 T01261039  RH  031%=      5-min Rain = 0
KWE2 192231Z 34006KT 13/M04 A3026 RMK A01 T01281036  RH  032%=      5-min Rain = 0
KWE2 192232Z 33005KT 13/M04 A3026 RMK A01 T01301037  RH  031%=      5-min Rain = 0
KWE2 192233Z 32007KT 13/M04 A3026 RMK A01 T01301040  RH  030%=      5-min Rain = 0
KWE2 192234Z 32009KT 13/M04 A3026 RMK A01 T01301040  RH  030%=      5-min Rain = 0
KWE2 192235Z 32010KT 13/M04 A3026 RMK A01 T01301040  RH  030%=      5-min Rain = 0
KWE2 192236Z 33009KT 13/M04 A3026 RMK A01 T01281041  RH  031%=      5-min Rain = 0
KWE2 192237Z 34009KT 13/M04 A3026 RMK A01 T01281041  RH  031%=      5-min Rain = 0
KWE2 192238Z 34009KT 13/M04 A3026 RMK A01 T01291041  RH  030%=      5-min Rain = 0
KWE2 192239Z 33008KT 13/M04 A3026 RMK A01 T01291041  RH  030%=      5-min Rain = 0
KWE2 192240Z 32009KT 13/M04 A3026 RMK A01 T01281040  RH  031%=      5-min Rain = 0
KWE2 192241Z 31007KT 13/M04 A3026 RMK A01 T01291040  RH  031%=      5-min Rain = 0
KWE2 192242Z 34009KT 13/M04 A3026 RMK A01 T01291041  RH  030%=      5-min Rain = 0
KWE2 192243Z 35010KT 13/M04 A3026 RMK A01 T01301043  RH  030%=      5-min Rain = 0
KWE2 192244Z 35010KT 13/M04 A3026 RMK A01 T01291044  RH  030%=      5-min Rain = 0
KWE2 192245Z 34010KT 13/M05 A3026 RMK A01 T01281046  RH  029%=      5-min Rain = 0
KWE2 192246Z 35009KT 13/M05 A3026 RMK A01 T01271046  RH  030%=      5-min Rain = 0
KWE2 192247Z 35009KT 13/M05 A3026 RMK A01 T01281045  RH  030%=      5-min Rain = 0
KWE2 192248Z 34008KT 13/M04 A3026 RMK A01 T01271044  RH  030%=      5-min Rain = 0
KWE2 192249Z 34009KT 13/M05 A3026 RMK A01 T01271045  RH  030%=      5-min Rain = 0
KWE2 192250Z 35006KT 13/M05 A3027 RMK A01 T01271047  RH  030%=      5-min Rain = 0
KWE2 192251Z 35007KT 13/M05 A3027 RMK A01 T01261045  RH  030%=      5-min Rain = 0
KWE2 192252Z 34008KT 13/M04 A3027 RMK A01 T01261044  RH  030%=      5-min Rain = 0
KWE2 192253Z 34007KT 13/M05 A3027 RMK A01 T01271046  RH  030%=      5-min Rain = 0
KWE2 192254Z 35006KT 13/M05 A3026 RMK A01 T01261046  RH  030%=      5-min Rain = 0
KWE2 192255Z 35006KT 13/M04 A3026 RMK A01 T01261044  RH  030%=      5-min Rain = 0
KWE2 192256Z 35006KT 13/M04 A3026 RMK A01 T01261044  RH  030%=      5-min Rain = 0
KWE2 192257Z 32007KT 13/M04 A3026 RMK A01 T01271044  RH  030%=      5-min Rain = 0
KWE2 192258Z 32006KT 13/M05 A3026 RMK A01 T01271045  RH  030%=      5-min Rain = 0
KWE2 192259Z 33006KT 13/M05 A3026 RMK A01 T01271045  RH  030%=      5-min Rain = 0
KWE2 192300Z 32005KT 13/M05 A3026 RMK A01 T01271045  RH  030%=      5-min Rain = 0
KWE2 192301Z 33005KT 13/M05 A3026 RMK A01 T01271045  RH  030%=      5-min Rain = 0
KWE2 192302Z 34005KT 13/M05 A3026 RMK A01 T01271045  RH  030%=      5-min Rain = 0
KWE2 192303Z 35006KT 13/M04 A3026 RMK A01 T01271044  RH  030%=      5-min Rain = 0
KWE2 192304Z 35007KT 13/M04 A3026 RMK A01 T01271042  RH  031%=      5-min Rain = 0
KWE2 192305Z 34009KT 13/M05 A3026 RMK A01 T01271045  RH  030%=      5-min Rain = 0
KWE2 192306Z 34011KT 13/M05 A3026 RMK A01 T01271045  RH  030%=      5-min Rain = 0
KWE2 192307Z 34009KT 13/M05 A3026 RMK A01 T01261045  RH  030%=      5-min Rain = 0
KWE2 192308Z 33007KT 13/M04 A3026 RMK A01 T01271043  RH  030%=      5-min Rain = 0
KWE2 192309Z 33007KT 13/M04 A3026 RMK A01 T01261044  RH  030%=      5-min Rain = 0
KWE2 192310Z 33007KT 13/M04 A3026 RMK A01 T01261044  RH  030%=      5-min Rain = 0
KWE2 192311Z 34007KT 13/M04 A3026 RMK A01 T01271044  RH  030%=      5-min Rain = 0
KWE2 192312Z 35006KT 13/M04 A3026 RMK A01 T01261044  RH  030%=      5-min Rain = 0
KWE2 192313Z 35005KT 13/M04 A3026 RMK A01 T01251043  RH  031%=      5-min Rain = 0
KWE2 192314Z 33004KT 13/M04 A3026 RMK A01 T01261043  RH  031%=      5-min Rain = 0
KWE2 192315Z 34004KT 13/M04 A3026 RMK A01 T01261044  RH  030%=      5-min Rain = 0
KWE2 192316Z 35004KT 13/M04 A3026 RMK A01 T01251043  RH  031%=      5-min Rain = 0
KWE2 192317Z 35007KT 13/M04 A3026 RMK A01 T01251042  RH  031%=      5-min Rain = 0
KWE2 192318Z 35007KT 13/M04 A3026 RMK A01 T01261043  RH  031%=      5-min Rain = 0
KWE2 192319Z 35008KT 13/M04 A3026 RMK A01 T01251044  RH  031%=      5-min Rain = 0
KWE2 192320Z 35007KT 13/M04 A3026 RMK A01 T01251042  RH  031%=      5-min Rain = 0
KWE2 192321Z 36006KT 12/M04 A3026 RMK A01 T01241042  RH  031%=      5-min Rain = 0
KWE2 192322Z 36008KT 12/M04 A3026 RMK A01 T01241041  RH  031%=      5-min Rain = 0
KWE2 192323Z 36008KT 12/M04 A3026 RMK A01 T01241042  RH  031%=      5-min Rain = 0
KWE2 192324Z 35007KT 12/M04 A3026 RMK A01 T01231042  RH  031%=      5-min Rain = 0
KWE2 192325Z 36007KT 12/M04 A3026 RMK A01 T01231042  RH  031%=      5-min Rain = 0
KWE2 192326Z 01006KT 12/M04 A3026 RMK A01 T01231041  RH  032%=      5-min Rain = 0
KWE2 192327Z 36006KT 12/M04 A3026 RMK A01 T01221039  RH  032%=      5-min Rain = 0
KWE2 192328Z 36005KT 12/M04 A3026 RMK A01 T01211038  RH  033%=      5-min Rain = 0
KWE2 192329Z 00005KT 12/M04 A3026 RMK A01 T01211040  RH  032%=      5-min Rain = 0
KWE2 192330Z 01005KT 12/M04 A3026 RMK A01 T01211041  RH  032%=      5-min Rain = 0
KWE2 192331Z 02005KT 12/M04 A3026 RMK A01 T01211040  RH  032%=      5-min Rain = 0
KWE2 192332Z 01006KT 12/M04 A3026 RMK A01 T01201038  RH  033%=      5-min Rain = 0
KWE2 192333Z 01005KT 12/M04 A3026 RMK A01 T01191041  RH  032%=      5-min Rain = 0
KWE2 192334Z 01005KT 12/M04 A3026 RMK A01 T01191040  RH  033%=      5-min Rain = 0
KWE2 192335Z 01004KT 12/M04 A3026 RMK A01 T01181039  RH  033%=      5-min Rain = 0
KWE2 192336Z 00004KT 12/M04 A3026 RMK A01 T01171039  RH  033%=      5-min Rain = 0
KWE2 192337Z 01004KT 12/M04 A3026 RMK A01 T01171039  RH  034%=      5-min Rain = 0
KWE2 192338Z 01004KT 12/M04 A3026 RMK A01 T01161038  RH  034%=      5-min Rain = 0
KWE2 192339Z 01005KT 12/M04 A3026 RMK A01 T01151038  RH  034%=      5-min Rain = 0
KWE2 192340Z 01005KT 11/M04 A3026 RMK A01 T01141037  RH  034%=      5-min Rain = 0
KWE2 192341Z 01005KT 11/M04 A3026 RMK A01 T01131037  RH  035%=      5-min Rain = 0
KWE2 192342Z 01004KT 11/M04 A3026 RMK A01 T01131037  RH  035%=      5-min Rain = 0
KWE2 192343Z 01004KT 11/M04 A3026 RMK A01 T01121038  RH  035%=      5-min Rain = 0
KWE2 192344Z 01004KT 11/M04 A3026 RMK A01 T01121037  RH  035%=      5-min Rain = 0
KWE2 192345Z 01004KT 11/M04 A3026 RMK A01 T01121039  RH  035%=      5-min Rain = 0
KWE2 192346Z 01004KT 11/M04 A3026 RMK A01 T01121039  RH  034%=      5-min Rain = 0
KWE2 192347Z 01004KT 11/M04 A3026 RMK A01 T01131039  RH  034%=      5-min Rain = 0
KWE2 192348Z 01004KT 11/M04 A3026 RMK A01 T01121039  RH  035%=      5-min Rain = 0
KWE2 192349Z 01005KT 11/M04 A3026 RMK A01 T01111038  RH  035%=      5-min Rain = 0
KWE2 192350Z 01005KT 11/M04 A3026 RMK A01 T01091037  RH  036%=      5-min Rain = 0
KWE2 192351Z 01005KT 11/M04 A3026 RMK A01 T01061038  RH  036%=      5-min Rain = 0
KWE2 192352Z 01005KT 11/M04 A3026 RMK A01 T01051038  RH  036%=      5-min Rain = 0
KWE2 192353Z 01005KT 11/M04 A3026 RMK A01 T01051038  RH  037%=      5-min Rain = 0
KWE2 192354Z 01005KT 10/M04 A3026 RMK A01 T01041038  RH  037%=      5-min Rain = 0
KWE2 192355Z 01005KT 10/M04 A3026 RMK A01 T01031038  RH  037%=      5-min Rain = 0
KWE2 192356Z 01005KT 10/M04 A3026 RMK A01 T01011038  RH  037%=      5-min Rain = 0
KWE2 192357Z 01005KT 10/M04 A3026 RMK A01 T01001039  RH  037%=      5-min Rain = 0
KWE2 192358Z 01005KT 10/M04 A3026 RMK A01 T01001039  RH  037%=      5-min Rain = 0
KWE2 192359Z 01005KT 10/M04 A3026 RMK A01 T00991039  RH  037%=      5-min Rain = 0
KWE2 200000Z 01005KT 10/M04 A3026 RMK A01 T00991040  RH  037%=      5-min Rain = 0
KWE2 200001Z 01005KT 10/M04 A3026 RMK A01 T00991040  RH  037%=      5-min Rain = 0
KWE2 200002Z 01005KT 10/M04 A3026 RMK A01 T00981040  RH  038%=      5-min Rain = 0
KWE2 200003Z 01005KT 10/M04 A3026 RMK A01 T00961041  RH  038%=      5-min Rain = 0
KWE2 200004Z 01005KT 10/M04 A3026 RMK A01 T00951040  RH  038%=      5-min Rain = 0
KWE2 200005Z 01005KT 09/M04 A3026 RMK A01 T00941041  RH  038%=      5-min Rain = 0
KWE2 200006Z 01005KT 09/M04 A3026 RMK A01 T00941041  RH  038%=      5-min Rain = 0
KWE2 200007Z 00005KT 09/M04 A3026 RMK A01 T00921041  RH  039%=      5-min Rain = 0
KWE2 200008Z 00005KT 09/M04 A3026 RMK A01 T00891041  RH  039%=      5-min Rain = 0
KWE2 200009Z 01006KT 09/M04 A3026 RMK A01 T00881043  RH  039%=      5-min Rain = 0
KWE2 200010Z 02005KT 09/M04 A3026 RMK A01 T00881043  RH  039%=      5-min Rain = 0
KWE2 200011Z 02004KT 09/M04 A3026 RMK A01 T00891042  RH  039%=      5-min Rain = 0
KWE2 200012Z 02004KT 09/M04 A3026 RMK A01 T00881042  RH  040%=      5-min Rain = 0
KWE2 200013Z 02004KT 09/M04 A3026 RMK A01 T00851042  RH  040%=      5-min Rain = 0
KWE2 200014Z 02004KT 08/M04 A3026 RMK A01 T00841041  RH  041%=      5-min Rain = 0
KWE2 200015Z 02003KT 08/M04 A3026 RMK A01 T00831042  RH  041%=      5-min Rain = 0
KWE2 200016Z 02003KT 08/M04 A3027 RMK A01 T00811041  RH  042%=      5-min Rain = 0
KWE2 200017Z 02002KT 08/M04 A3027 RMK A01 T00791041  RH  042%=      5-min Rain = 0
KWE2 200018Z 02002KT 08/M04 A3027 RMK A01 T00791041  RH  042%=      5-min Rain = 0
KWE2 200019Z 03003KT 08/M04 A3027 RMK A01 T00801042  RH  042%=      5-min Rain = 0
KWE2 200020Z 04003KT 08/M04 A3027 RMK A01 T00831041  RH  041%=      5-min Rain = 0
KWE2 200021Z 04003KT 09/M04 A3027 RMK A01 T00861041  RH  040%=      5-min Rain = 0
KWE2 200022Z 04004KT 09/M04 A3027 RMK A01 T00871042  RH  040%=      5-min Rain = 0
KWE2 200023Z 04004KT 09/M04 A3027 RMK A01 T00871042  RH  040%=      5-min Rain = 0
KWE2 200024Z 05004KT 09/M04 A3027 RMK A01 T00861042  RH  040%=      5-min Rain = 0
KWE2 200025Z 05004KT 09/M04 A3027 RMK A01 T00861041  RH  040%=      5-min Rain = 0
KWE2 200026Z 05004KT 09/M04 A3027 RMK A01 T00861040  RH  041%=      5-min Rain = 0
KWE2 200027Z 05005KT 09/M04 A3027 RMK A01 T00871039  RH  041%=      5-min Rain = 0
KWE2 200028Z 05005KT 09/M04 A3027 RMK A01 T00891039  RH  040%=      5-min Rain = 0
KWE2 200029Z 05005KT 09/M04 A3027 RMK A01 T00891039  RH  040%=      5-min Rain = 0
KWE2 200030Z 06004KT 09/M04 A3027 RMK A01 T00891039  RH  040%=      5-min Rain = 0
KWE2 200031Z 05005KT 09/M04 A3027 RMK A01 T00891039  RH  040%=      5-min Rain = 0
KWE2 200032Z 05005KT 09/M04 A3027 RMK A01 T00901038  RH  040%=      5-min Rain = 0
KWE2 200033Z 05005KT 09/M04 A3027 RMK A01 T00911037  RH  040%=      5-min Rain = 0
KWE2 200034Z 05005KT 09/M04 A3027 RMK A01 T00901038  RH  040%=      5-min Rain = 0
KWE2 200035Z 05006KT 09/M04 A3027 RMK A01 T00891037  RH  041%=      5-min Rain = 0
KWE2 200036Z 05006KT 09/M04 A3027 RMK A01 T00871037  RH  041%=      5-min Rain = 0
KWE2 200037Z 05006KT 09/M04 A3027 RMK A01 T00851037  RH  042%=      5-min Rain = 0
KWE2 200038Z 05006KT 08/M04 A3027 RMK A01 T00841036  RH  042%=      5-min Rain = 0
KWE2 200039Z 05005KT 08/M04 A3027 RMK A01 T00841036  RH  043%=      5-min Rain = 0
KWE2 200040Z 05005KT 08/M04 A3027 RMK A01 T00841036  RH  043%=      5-min Rain = 0
KWE2 200041Z 05006KT 08/M04 A3027 RMK A01 T00841036  RH  043%=      5-min Rain = 0
KWE2 200042Z 05006KT 08/M04 A3027 RMK A01 T00831035  RH  043%=      5-min Rain = 0
KWE2 200043Z 06005KT 08/M04 A3027 RMK A01 T00831035  RH  043%=      5-min Rain = 0
KWE2 200044Z 05006KT 08/M04 A3027 RMK A01 T00821035  RH  043%=      5-min Rain = 0
KWE2 200045Z 06006KT 08/M04 A3027 RMK A01 T00821035  RH  044%=      5-min Rain = 0
KWE2 200046Z 05006KT 08/M04 A3027 RMK A01 T00821035  RH  044%=      5-min Rain = 0
KWE2 200047Z 06007KT 08/M03 A3027 RMK A01 T00811034  RH  044%=      5-min Rain = 0
KWE2 200048Z 05007KT 08/M03 A3027 RMK A01 T00811034  RH  044%=      5-min Rain = 0
KWE2 200049Z 06007KT 08/M03 A3027 RMK A01 T00811034  RH  044%=      5-min Rain = 0
KWE2 200050Z 06007KT 08/M03 A3027 RMK A01 T00811034  RH  044%=      5-min Rain = 0
KWE2 200051Z 06007KT 08/M03 A3027 RMK A01 T00821034  RH  044%=      5-min Rain = 0
KWE2 200052Z 06007KT 08/M03 A3027 RMK A01 T00821034  RH  044%=      5-min Rain = 0
KWE2 200053Z 06007KT 08/M03 A3027 RMK A01 T00811034  RH  044%=      5-min Rain = 0
KWE2 200054Z 07006KT 08/M03 A3027 RMK A01 T00811034  RH  044%=      5-min Rain = 0
KWE2 200055Z 06007KT 08/M04 A3027 RMK A01 T00811035  RH  044%=      5-min Rain = 0
KWE2 200056Z 06007KT 08/M04 A3027 RMK A01 T00811035  RH  044%=      5-min Rain = 0
KWE2 200057Z 06006KT 08/M04 A3027 RMK A01 T00801036  RH  044%=      5-min Rain = 0
KWE2 200058Z 06006KT 08/M04 A3027 RMK A01 T00781035  RH  044%=      5-min Rain = 0
KWE2 200059Z 06006KT 08/M04 A3027 RMK A01 T00771035  RH  045%=      5-min Rain = 0
KWE2 200100Z 07006KT 08/M04 A3027 RMK A01 T00771035  RH  045%=      5-min Rain = 0
KWE2 200101Z 07006KT 08/M04 A3027 RMK A01 T00771035  RH  045%=      5-min Rain = 0
KWE2 200102Z 07006KT 08/M04 A3027 RMK A01 T00771035  RH  045%=      5-min Rain = 0
KWE2 200103Z 06007KT 08/M03 A3027 RMK A01 T00781034  RH  045%=      5-min Rain = 0
KWE2 200104Z 07007KT 08/M03 A3027 RMK A01 T00801033  RH  045%=      5-min Rain = 0
KWE2 200105Z 06007KT 08/M03 A3028 RMK A01 T00811033  RH  044%=      5-min Rain = 0
KWE2 200106Z 07006KT 08/M03 A3028 RMK A01 T00811033  RH  044%=      5-min Rain = 0
KWE2 200107Z 06007KT 08/M03 A3028 RMK A01 T00821033  RH  044%=      5-min Rain = 0
KWE2 200108Z 06007KT 08/M03 A3028 RMK A01 T00811034  RH  044%=      5-min Rain = 0
KWE2 200109Z 06006KT 08/M03 A3028 RMK A01 T00801034  RH  044%=      5-min Rain = 0
KWE2 200110Z 06007KT 08/M03 A3028 RMK A01 T00791034  RH  045%=      5-min Rain = 0
KWE2 200111Z 07007KT 08/M03 A3028 RMK A01 T00781034  RH  045%=      5-min Rain = 0
KWE2 200112Z 07007KT 08/M03 A3028 RMK A01 T00781034  RH  045%=      5-min Rain = 0
KWE2 200113Z 06007KT 08/M03 A3028 RMK A01 T00781034  RH  045%=      5-min Rain = 0
KWE2 200114Z 06006KT 08/M03 A3028 RMK A01 T00781034  RH  045%=      5-min Rain = 0
KWE2 200115Z 06007KT 08/M03 A3028 RMK A01 T00781034  RH  045%=      5-min Rain = 0
KWE2 200116Z 06007KT 08/M03 A3028 RMK A01 T00771034  RH  045%=      5-min Rain = 0
KWE2 200117Z 06007KT 08/M04 A3028 RMK A01 T00761035  RH  045%=      5-min Rain = 0
KWE2 200118Z 06007KT 08/M03 A3028 RMK A01 T00761034  RH  046%=      5-min Rain = 0
KWE2 200119Z 07007KT 08/M03 A3028 RMK A01 T00761034  RH  046%=      5-min Rain = 0
KWE2 200120Z 07007KT 08/M03 A3028 RMK A01 T00761034  RH  046%=      5-min Rain = 0
KWE2 200121Z 07007KT 08/M03 A3028 RMK A01 T00761034  RH  046%=      5-min Rain = 0
KWE2 200122Z 07006KT 08/M03 A3028 RMK A01 T00771034  RH  045%=      5-min Rain = 0
KWE2 200123Z 07006KT 08/M03 A3028 RMK A01 T00781034  RH  045%=      5-min Rain = 0
KWE2 200124Z 07006KT 08/M03 A3028 RMK A01 T00781034  RH  045%=      5-min Rain = 0
KWE2 200125Z 07006KT 08/M03 A3028 RMK A01 T00781034  RH  045%=      5-min Rain = 0
KWE2 200126Z 07006KT 08/M03 A3028 RMK A01 T00771034  RH  045%=      5-min Rain = 0
KWE2 200127Z 07006KT 08/M03 A3028 RMK A01 T00781034  RH  045%=      5-min Rain = 0
KWE2 200128Z 08007KT 08/M03 A3028 RMK A01 T00781034  RH  045%=      5-min Rain = 0
KWE2 200129Z 07007KT 08/M03 A3028 RMK A01 T00781034  RH  045%=      5-min Rain = 0
KWE2 200130Z 08006KT 08/M04 A3028 RMK A01 T00771035  RH  045%=      5-min Rain = 0
KWE2 200131Z 08006KT 08/M03 A3028 RMK A01 T00771034  RH  045%=      5-min Rain = 0
KWE2 200132Z 08005KT 08/M03 A3028 RMK A01 T00771034  RH  045%=      5-min Rain = 0
KWE2 200133Z 08006KT 08/M03 A3028 RMK A01 T00761033  RH  046%=      5-min Rain = 0
KWE2 200134Z 08005KT 08/M03 A3028 RMK A01 T00751033  RH  046%=      5-min Rain = 0
KWE2 200135Z 08006KT 08/M03 A3028 RMK A01 T00761033  RH  046%=      5-min Rain = 0
KWE2 200136Z 08006KT 08/M03 A3028 RMK A01 T00751033  RH  046%=      5-min Rain = 0
KWE2 200137Z 08005KT 08/M03 A3028 RMK A01 T00761033  RH  046%=      5-min Rain = 0
KWE2 200138Z 08004KT 08/M03 A3028 RMK A01 T00751034  RH  046%=      5-min Rain = 0
KWE2 200139Z 08004KT 07/M04 A3028 RMK A01 T00691039  RH  046%=      5-min Rain = 0
KWE2 200140Z 08006KT 06/M04 A3028 RMK A01 T00631040  RH  048%=      5-min Rain = 0
KWE2 200141Z 08006KT 06/M04 A3028 RMK A01 T00601037  RH  049%=      5-min Rain = 0
KWE2 200142Z 08006KT 06/M04 A3028 RMK A01 T00611035  RH  050%=      5-min Rain = 0
KWE2 200143Z 08005KT 06/M03 A3028 RMK A01 T00631033  RH  050%=      5-min Rain = 0
KWE2 200144Z 08007KT 07/M03 A3028 RMK A01 T00651032  RH  050%=      5-min Rain = 0
KWE2 200145Z 08007KT 07/M03 A3028 RMK A01 T00691032  RH  049%=      5-min Rain = 0
KWE2 200146Z 07007KT 07/M03 A3028 RMK A01 T00721033  RH  047%=      5-min Rain = 0
KWE2 200147Z 07007KT 07/M03 A3028 RMK A01 T00731033  RH  047%=      5-min Rain = 0
KWE2 200148Z 08007KT 07/M03 A3028 RMK A01 T00731034  RH  046%=      5-min Rain = 0
KWE2 200149Z 07007KT 07/M03 A3028 RMK A01 T00741034  RH  046%=      5-min Rain = 0
KWE2 200150Z 08007KT 07/M03 A3028 RMK A01 T00731034  RH  046%=      5-min Rain = 0
KWE2 200151Z 07006KT 07/M03 A3028 RMK A01 T00731034  RH  046%=      5-min Rain = 0
KWE2 200152Z 08006KT 07/M03 A3028 RMK A01 T00731034  RH  047%=      5-min Rain = 0
KWE2 200153Z 09007KT 07/M03 A3028 RMK A01 T00721034  RH  047%=      5-min Rain = 0
KWE2 200154Z 09007KT 07/M03 A3028 RMK A01 T00711034  RH  047%=      5-min Rain = 0
KWE2 200155Z 09007KT 07/M03 A3028 RMK A01 T00711034  RH  047%=      5-min Rain = 0
KWE2 200156Z 11005KT 07/M03 A3028 RMK A01 T00721033  RH  047%=      5-min Rain = 0
KWE2 200157Z 13006KT 07/M04 A3027 RMK A01 T00671041  RH  046%=      5-min Rain = 0
KWE2 200158Z 15006KT 06/M05 A3027 RMK A01 T00561048  RH  047%=      5-min Rain = 0
KWE2 200159Z 14006KT 05/M05 A3027 RMK A01 T00461048  RH  050%=      5-min Rain = 0
KWE2 200200Z 13006KT 04/M05 A3027 RMK A01 T00421045  RH  053%=      5-min Rain = 0
KWE2 200201Z 11006KT 04/M04 A3027 RMK A01 T00411042  RH  055%=      5-min Rain = 0
KWE2 200202Z 10006KT 04/M04 A3027 RMK A01 T00421039  RH  055%=      5-min Rain = 0
KWE2 200203Z 10007KT 05/M04 A3027 RMK A01 T00451037  RH  055%=      5-min Rain = 0
KWE2 200204Z 10006KT 05/M04 A3027 RMK A01 T00461037  RH  055%=      5-min Rain = 0
KWE2 200205Z 10006KT 05/M04 A3027 RMK A01 T00461037  RH  055%=      5-min Rain = 0
KWE2 200206Z 10006KT 05/M04 A3027 RMK A01 T00461037  RH  055%=      5-min Rain = 0
KWE2 200207Z 09006KT 05/M04 A3027 RMK A01 T00461037  RH  055%=      5-min Rain = 0
KWE2 200208Z 10006KT 05/M04 A3027 RMK A01 T00461037  RH  055%=      5-min Rain = 0
KWE2 200209Z 10006KT 05/M04 A3027 RMK A01 T00461036  RH  055%=      5-min Rain = 0
KWE2 200210Z 09006KT 05/M04 A3027 RMK A01 T00461036  RH  055%=      5-min Rain = 0
KWE2 200211Z 09006KT 05/M04 A3027 RMK A01 T00451036  RH  055%=      5-min Rain = 0
KWE2 200212Z 09006KT 05/M04 A3027 RMK A01 T00451036  RH  056%=      5-min Rain = 0
KWE2 200213Z 10006KT 05/M04 A3027 RMK A01 T00461036  RH  055%=      5-min Rain = 0
KWE2 200214Z 09006KT 05/M04 A3027 RMK A01 T00471035  RH  055%=      5-min Rain = 0
KWE2 200215Z 09006KT 05/M04 A3027 RMK A01 T00471036  RH  055%=      5-min Rain = 0
KWE2 200216Z 09006KT 05/M04 A3027 RMK A01 T00471035  RH  055%=      5-min Rain = 0
KWE2 200217Z 09006KT 05/M04 A3028 RMK A01 T00471035  RH  055%=      5-min Rain = 0
KWE2 200218Z 09006KT 05/M04 A3028 RMK A01 T00471036  RH  055%=      5-min Rain = 0
KWE2 200219Z 10006KT 05/M04 A3028 RMK A01 T00471036  RH  055%=      5-min Rain = 0
KWE2 200220Z 09006KT 05/M04 A3028 RMK A01 T00451038  RH  055%=      5-min Rain = 0
KWE2 200221Z 10005KT 04/M04 A3028 RMK A01 T00431041  RH  055%=      5-min Rain = 0
KWE2 200222Z 10005KT 04/M04 A3028 RMK A01 T00411042  RH  055%=      5-min Rain = 0
KWE2 200223Z 10006KT 04/M04 A3028 RMK A01 T00391041  RH  056%=      5-min Rain = 0
KWE2 200224Z 10006KT 04/M04 A3028 RMK A01 T00381040  RH  056%=      5-min Rain = 0
KWE2 200225Z 10005KT 04/M04 A3028 RMK A01 T00381041  RH  057%=      5-min Rain = 0
KWE2 200226Z 10005KT 04/M04 A3028 RMK A01 T00371041  RH  057%=      5-min Rain = 0
KWE2 200227Z 10005KT 04/M04 A3028 RMK A01 T00371041  RH  057%=      5-min Rain = 0
KWE2 200228Z 10005KT 04/M04 A3028 RMK A01 T00361042  RH  057%=      5-min Rain = 0
KWE2 200229Z 10005KT 03/M04 A3028 RMK A01 T00341042  RH  057%=      5-min Rain = 0
KWE2 200230Z 11005KT 03/M04 A3028 RMK A01 T00311043  RH  058%=      5-min Rain = 0
KWE2 200231Z 11005KT 03/M04 A3028 RMK A01 T00301044  RH  058%=      5-min Rain = 0
KWE2 200232Z 10004KT 03/M04 A3028 RMK A01 T00291044  RH  059%=      5-min Rain = 0
KWE2 200233Z 10004KT 03/M04 A3028 RMK A01 T00281044  RH  059%=      5-min Rain = 0
KWE2 200234Z 10004KT 03/M04 A3028 RMK A01 T00281043  RH  060%=      5-min Rain = 0
KWE2 200235Z 10004KT 03/M04 A3028 RMK A01 T00281043  RH  060%=      5-min Rain = 0
KWE2 200236Z 10005KT 03/M04 A3028 RMK A01 T00281042  RH  060%=      5-min Rain = 0
KWE2 200237Z 10005KT 03/M04 A3028 RMK A01 T00291042  RH  060%=      5-min Rain = 0
KWE2 200238Z 10005KT 03/M04 A3028 RMK A01 T00291041  RH  060%=      5-min Rain = 0
KWE2 200239Z 10005KT 03/M04 A3028 RMK A01 T00301041  RH  060%=      5-min Rain = 0
KWE2 200240Z 10005KT 03/M04 A3028 RMK A01 T00301041  RH  060%=      5-min Rain = 0
KWE2 200241Z 10005KT 03/M04 A3028 RMK A01 T00311040  RH  060%=      5-min Rain = 0
KWE2 200242Z 09005KT 03/M04 A3029 RMK A01 T00321040  RH  059%=      5-min Rain = 0
KWE2 200243Z 09005KT 03/M04 A3029 RMK A01 T00331039  RH  059%=      5-min Rain = 0
KWE2 200244Z 09004KT 03/M04 A3029 RMK A01 T00341039  RH  059%=      5-min Rain = 0
KWE2 200245Z 09005KT 04/M04 A3029 RMK A01 T00351038  RH  059%=      5-min Rain = 0
KWE2 200246Z 09005KT 04/M04 A3029 RMK A01 T00371037  RH  058%=      5-min Rain = 0
KWE2 200247Z 09005KT 04/M04 A3029 RMK A01 T00371038  RH  058%=      5-min Rain = 0
KWE2 200248Z 09006KT 04/M04 A3029 RMK A01 T00381039  RH  057%=      5-min Rain = 0
KWE2 200249Z 09005KT 04/M04 A3029 RMK A01 T00381039  RH  057%=      5-min Rain = 0
KWE2 200250Z 09005KT 04/M04 A3029 RMK A01 T00381039  RH  057%=      5-min Rain = 0
KWE2 200251Z 09005KT 04/M04 A3029 RMK A01 T00381039  RH  057%=      5-min Rain = 0
KWE2 200252Z 09005KT 04/M04 A303 RMK A01 T00381038  RH  057%=      5-min Rain = 0
KWE2 200253Z 09004KT 04/M04 A303 RMK A01 T00391036  RH  058%=      5-min Rain = 0
KWE2 200254Z 09004KT 04/M04 A303 RMK A01 T00401038  RH  057%=      5-min Rain = 0
KWE2 200255Z 09004KT 04/M04 A303 RMK A01 T00411038  RH  057%=      5-min Rain = 0
KWE2 200256Z 09004KT 04/M04 A303 RMK A01 T00411038  RH  056%=      5-min Rain = 0
KWE2 200257Z 09004KT 04/M04 A303 RMK A01 T00411038  RH  056%=      5-min Rain = 0
KWE2 200258Z 10004KT 04/M04 A303 RMK A01 T00401039  RH  056%=      5-min Rain = 0
KWE2 200259Z 10005KT 04/M04 A303 RMK A01 T00401040  RH  056%=      5-min Rain = 0
KWE2 200300Z 10005KT 04/M04 A303 RMK A01 T00381040  RH  057%=      5-min Rain = 0
KWE2 200301Z 10005KT 04/M04 A303 RMK A01 T00371040  RH  057%=      5-min Rain = 0
KWE2 200302Z 10005KT 04/M04 A303 RMK A01 T00351040  RH  058%=      5-min Rain = 0
KWE2 200303Z 10005KT 03/M04 A303 RMK A01 T00331040  RH  059%=      5-min Rain = 0
KWE2 200304Z 10005KT 03/M04 A303 RMK A01 T00331040  RH  059%=      5-min Rain = 0
KWE2 200305Z 10005KT 03/M04 A303 RMK A01 T00331041  RH  059%=      5-min Rain = 0
KWE2 200306Z 10005KT 03/M04 A3031 RMK A01 T00321042  RH  059%=      5-min Rain = 0
KWE2 200307Z 10005KT 03/M04 A3031 RMK A01 T00311042  RH  059%=      5-min Rain = 0
KWE2 200308Z 10004KT 03/M04 A3031 RMK A01 T00301043  RH  059%=      5-min Rain = 0
KWE2 200309Z 10004KT 03/M04 A3031 RMK A01 T00291043  RH  059%=      5-min Rain = 0
KWE2 200310Z 10003KT 03/M05 A3031 RMK A01 T00271045  RH  059%=      5-min Rain = 0
KWE2 200311Z 10003KT 03/M04 A3031 RMK A01 T00261044  RH  060%=      5-min Rain = 0
KWE2 200312Z 10004KT 03/M04 A3031 RMK A01 T00261044  RH  060%=      5-min Rain = 0
KWE2 200313Z 10004KT 03/M04 A3031 RMK A01 T00251044  RH  060%=      5-min Rain = 0
KWE2 200314Z 10004KT 03/M04 A3031 RMK A01 T00251043  RH  061%=      5-min Rain = 0
KWE2 200315Z 11004KT 03/M04 A3031 RMK A01 T00251043  RH  061%=      5-min Rain = 0
KWE2 200316Z 11004KT 02/M04 A3031 RMK A01 T00241044  RH  061%=      5-min Rain = 0
KWE2 200317Z 11004KT 02/M04 A3031 RMK A01 T00241044  RH  061%=      5-min Rain = 0
KWE2 200318Z 11004KT 02/M05 A303 RMK A01 T00231047  RH  060%=      5-min Rain = 0
KWE2 200319Z 11004KT 02/M05 A303 RMK A01 T00201048  RH  060%=      5-min Rain = 0
KWE2 200320Z 11004KT 02/M05 A303 RMK A01 T00191049  RH  061%=      5-min Rain = 0
KWE2 200321Z 11004KT 02/M05 A303 RMK A01 T00171050  RH  061%=      5-min Rain = 0
KWE2 200322Z 11004KT 02/M05 A303 RMK A01 T00151050  RH  062%=      5-min Rain = 0
KWE2 200323Z 10003KT 02/M05 A3031 RMK A01 T00151047  RH  063%=      5-min Rain = 0
KWE2 200324Z 10003KT 02/M05 A3031 RMK A01 T00151045  RH  064%=      5-min Rain = 0
KWE2 200325Z 10003KT 02/M04 A3031 RMK A01 T00191041  RH  064%=      5-min Rain = 0
KWE2 200326Z 11002KT 02/M04 A3031 RMK A01 T00221040  RH  064%=      5-min Rain = 0
KWE2 200327Z 11003KT 02/M04 A3031 RMK A01 T00231041  RH  062%=      5-min Rain = 0
KWE2 200328Z 11003KT 02/M04 A303 RMK A01 T00231044  RH  061%=      5-min Rain = 0
KWE2 200329Z 11002KT 02/M04 A303 RMK A01 T00231044  RH  061%=      5-min Rain = 0
KWE2 200330Z 12002KT 02/M04 A303 RMK A01 T00221044  RH  061%=      5-min Rain = 0
KWE2 200331Z 12003KT 02/M05 A303 RMK A01 T00211045  RH  062%=      5-min Rain = 0
KWE2 200332Z 13003KT 02/M05 A303 RMK A01 T00211046  RH  061%=      5-min Rain = 0
KWE2 200333Z 13003KT 02/M05 A3029 RMK A01 T00201046  RH  062%=      5-min Rain = 0
KWE2 200334Z 13003KT 02/M05 A3029 RMK A01 T00191048  RH  061%=      5-min Rain = 0
KWE2 200335Z 13003KT 02/M05 A3029 RMK A01 T00171049  RH  061%=      5-min Rain = 0
KWE2 200336Z 13003KT 02/M05 A3029 RMK A01 T00161048  RH  062%=      5-min Rain = 0
KWE2 200337Z 12003KT 02/M05 A3029 RMK A01 T00151051  RH  062%=      5-min Rain = 0
KWE2 200338Z 12003KT 01/M05 A303 RMK A01 T00131053  RH  061%=      5-min Rain = 0
KWE2 200339Z 12003KT 01/M05 A303 RMK A01 T00121053  RH  062%=      5-min Rain = 0
KWE2 200340Z 12003KT 01/M05 A3029 RMK A01 T00111052  RH  063%=      5-min Rain = 0
KWE2 200341Z 13004KT 01/M05 A3029 RMK A01 T00101052  RH  063%=      5-min Rain = 0
KWE2 200342Z 13004KT 01/M05 A3028 RMK A01 T00091053  RH  063%=      5-min Rain = 0
KWE2 200343Z 13005KT 01/M05 A3028 RMK A01 T00081052  RH  064%=      5-min Rain = 0
KWE2 200344Z 14005KT 01/M05 A3028 RMK A01 T00091050  RH  065%=      5-min Rain = 0
KWE2 200345Z 13005KT 01/M05 A3028 RMK A01 T00091048  RH  065%=      5-min Rain = 0
KWE2 200346Z 13005KT 01/M05 A3029 RMK A01 T00101049  RH  064%=      5-min Rain = 0
KWE2 200347Z 14005KT 01/M05 A3029 RMK A01 T00101051  RH  064%=      5-min Rain = 0
KWE2 200348Z 13005KT 01/M05 A3029 RMK A01 T00091052  RH  064%=      5-min Rain = 0
KWE2 200349Z 13005KT 01/M05 A3029 RMK A01 T00081051  RH  065%=      5-min Rain = 0
KWE2 200350Z 13005KT 01/M05 A3029 RMK A01 T00071051  RH  065%=      5-min Rain = 0
KWE2 200351Z 14005KT 01/M05 A3029 RMK A01 T00071051  RH  065%=      5-min Rain = 0
KWE2 200352Z 14005KT 01/M05 A3029 RMK A01 T00071051  RH  065%=      5-min Rain = 0
KWE2 200353Z 13005KT 01/M05 A3029 RMK A01 T00071050  RH  066%=      5-min Rain = 0
KWE2 200354Z 13005KT 01/M05 A3029 RMK A01 T00071050  RH  066%=      5-min Rain = 0
KWE2 200355Z 13005KT 01/M05 A3029 RMK A01 T00071050  RH  066%=      5-min Rain = 0
KWE2 200356Z 13005KT 01/M05 A3029 RMK A01 T00071050  RH  065%=      5-min Rain = 0
KWE2 200357Z 13005KT 01/M05 A3029 RMK A01 T00071051  RH  065%=      5-min Rain = 0
KWE2 200358Z 12005KT 01/M05 A3029 RMK A01 T00061050  RH  066%=      5-min Rain = 0
KWE2 200359Z 12004KT 01/M05 A3029 RMK A01 T00071050  RH  066%=      5-min Rain = 0
KWE2 200400Z 12004KT 01/M05 A3029 RMK A01 T00081049  RH  066%=      5-min Rain = 0
KWE2 200401Z 12004KT 01/M05 A3029 RMK A01 T00091048  RH  066%=      5-min Rain = 0
KWE2 200402Z 12004KT 01/M05 A3029 RMK A01 T00101046  RH  066%=      5-min Rain = 0
KWE2 200403Z 13004KT 01/M04 A3029 RMK A01 T00111044  RH  067%=      5-min Rain = 0
KWE2 200404Z 13005KT 01/M04 A3029 RMK A01 T00111044  RH  067%=      5-min Rain = 0
KWE2 200405Z 14005KT 01/M04 A3029 RMK A01 T00111044  RH  067%=      5-min Rain = 0
KWE2 200406Z 14005KT 01/M05 A3029 RMK A01 T00111045  RH  066%=      5-min Rain = 0
KWE2 200407Z 14005KT 01/M05 A3028 RMK A01 T00091047  RH  066%=      5-min Rain = 0
KWE2 200408Z 14005KT 01/M05 A3028 RMK A01 T00081049  RH  065%=      5-min Rain = 0
KWE2 200409Z 14006KT 01/M05 A3028 RMK A01 T00081050  RH  065%=      5-min Rain = 0
KWE2 200410Z 13007KT 01/M05 A3028 RMK A01 T00071051  RH  065%=      5-min Rain = 0
KWE2 200411Z 13007KT 01/M05 A3028 RMK A01 T00061052  RH  065%=      5-min Rain = 0
KWE2 200412Z 12007KT 00/M05 A3028 RMK A01 T00041052  RH  066%=      5-min Rain = 0
KWE2 200413Z 12007KT 00/M05 A3028 RMK A01 T00031051  RH  067%=      5-min Rain = 0
KWE2 200414Z 12006KT 00/M05 A3028 RMK A01 T00031049  RH  068%=      5-min Rain = 0
KWE2 200415Z 12006KT 00/M05 A3028 RMK A01 T00031047  RH  069%=      5-min Rain = 0
KWE2 200416Z 13006KT 00/M05 A3028 RMK A01 T00031046  RH  069%=      5-min Rain = 0
KWE2 200417Z 13006KT 00/M05 A3028 RMK A01 T00031047  RH  069%=      5-min Rain = 0
KWE2 200418Z 13006KT 00/M05 A3028 RMK A01 T00031048  RH  068%=      5-min Rain = 0
KWE2 200419Z 13006KT 00/M05 A3028 RMK A01 T00031048  RH  068%=      5-min Rain = 0
KWE2 200420Z 13005KT 00/M05 A3028 RMK A01 T00021048  RH  069%=      5-min Rain = 0
KWE2 200421Z 13005KT 00/M05 A3029 RMK A01 T00021048  RH  069%=      5-min Rain = 0
KWE2 200422Z 13004KT 00/M05 A3029 RMK A01 T00021048  RH  069%=      5-min Rain = 0
KWE2 200423Z 13005KT 00/M05 A3029 RMK A01 T00021047  RH  070%=      5-min Rain = 0
KWE2 200424Z 13005KT 00/M05 A3029 RMK A01 T00041047  RH  069%=      5-min Rain = 0
KWE2 200425Z 13005KT 00/M05 A3028 RMK A01 T00041047  RH  068%=      5-min Rain = 0
KWE2 200426Z 13005KT 00/M05 A3028 RMK A01 T00041047  RH  068%=      5-min Rain = 0
KWE2 200427Z 13004KT 00/M05 A3029 RMK A01 T00041048  RH  068%=      5-min Rain = 0
KWE2 200428Z 13004KT 00/M05 A3029 RMK A01 T00041047  RH  069%=      5-min Rain = 0
KWE2 200429Z 13004KT 01/M05 A3029 RMK A01 T00051045  RH  069%=      5-min Rain = 0
KWE2 200430Z 13004KT 01/M04 A3028 RMK A01 T00061044  RH  069%=      5-min Rain = 0
KWE2 200431Z 13005KT 01/M04 A3029 RMK A01 T00061044  RH  069%=      5-min Rain = 0
KWE2 200432Z 13005KT 01/M04 A3029 RMK A01 T00071043  RH  069%=      5-min Rain = 0
KWE2 200433Z 13005KT 01/M04 A3029 RMK A01 T00071043  RH  069%=      5-min Rain = 0
KWE2 200434Z 13005KT 01/M04 A3029 RMK A01 T00071043  RH  069%=      5-min Rain = 0
KWE2 200435Z 13005KT 01/M05 A3029 RMK A01 T00061045  RH  069%=      5-min Rain = 0
KWE2 200436Z 13005KT 01/M05 A3029 RMK A01 T00051046  RH  069%=      5-min Rain = 0
KWE2 200437Z 13005KT 00/M05 A3029 RMK A01 T00041046  RH  069%=      5-min Rain = 0
KWE2 200438Z 14005KT 00/M05 A3029 RMK A01 T00031046  RH  070%=      5-min Rain = 0
KWE2 200439Z 14005KT 00/M05 A3029 RMK A01 T00041045  RH  070%=      5-min Rain = 0
KWE2 200440Z 14004KT 00/M05 A3029 RMK A01 T00031048  RH  069%=      5-min Rain = 0
KWE2 200441Z 14004KT 00/M05 A303 RMK A01 T00021049  RH  069%=      5-min Rain = 0
KWE2 200442Z 14004KT 00/M05 A303 RMK A01 T00011048  RH  069%=      5-min Rain = 0
KWE2 200443Z 14004KT 00/05 A303 RMK A01 T00000-49  RH  069%=      5-min Rain = 0
KWE2 200444Z 14004KT 00/05 A303 RMK A01 T00-00-50  RH  069%=      5-min Rain = 0
KWE2 200445Z 14003KT M00/M05 A303 RMK A01 T10011050  RH  069%=      5-min Rain = 0
KWE2 200446Z 15003KT M00/M05 A303 RMK A01 T10011050  RH  070%=      5-min Rain = 0
KWE2 200447Z 16002KT M00/M05 A303 RMK A01 T10011050  RH  070%=      5-min Rain = 0
KWE2 200448Z 17002KT M00/M05 A303 RMK A01 T10021050  RH  070%=      5-min Rain = 0
KWE2 200449Z 17002KT 00/05 A303 RMK A01 T00-00-49  RH  070%=      5-min Rain = 0
KWE2 200450Z 17003KT 00/05 A303 RMK A01 T00000-48  RH  070%=      5-min Rain = 0
KWE2 200451Z 17003KT 00/M05 A303 RMK A01 T00011048  RH  070%=      5-min Rain = 0
KWE2 200452Z 17003KT 00/M05 A303 RMK A01 T00021048  RH  069%=      5-min Rain = 0
KWE2 200453Z 16004KT 00/M05 A303 RMK A01 T00021049  RH  068%=      5-min Rain = 0
KWE2 200454Z 16004KT 00/M05 A303 RMK A01 T00021050  RH  068%=      5-min Rain = 0
KWE2 200455Z 16004KT 00/M05 A303 RMK A01 T00021050  RH  068%=      5-min Rain = 0
KWE2 200456Z 15004KT 00/M05 A303 RMK A01 T00011050  RH  069%=      5-min Rain = 0
KWE2 200457Z 15004KT 00/M05 A303 RMK A01 T00011050  RH  069%=      5-min Rain = 0
KWE2 200458Z 15004KT 00/M05 A303 RMK A01 T00011050  RH  069%=      5-min Rain = 0
KWE2 200459Z 15004KT 00/05 A303 RMK A01 T00000-51  RH  069%=      5-min Rain = 0
KWE2 200500Z 15004KT 00/05 A303 RMK A01 T00-00-50  RH  069%=      5-min Rain = 0
KWE2 200501Z 15005KT 00/05 A303 RMK A01 T00-00-49  RH  070%=      5-min Rain = 0
KWE2 200502Z 15005KT 00/05 A303 RMK A01 T00-00-49  RH  070%=      5-min Rain = 0
KWE2 200503Z 16005KT 00/05 A303 RMK A01 T00-00-50  RH  069%=      5-min Rain = 0
KWE2 200504Z 15005KT M00/M05 A303 RMK A01 T10011052  RH  069%=      5-min Rain = 0
KWE2 200505Z 15005KT M00/M05 A303 RMK A01 T10031054  RH  069%=      5-min Rain = 0
KWE2 200506Z 15005KT M00/M05 A303 RMK A01 T10041054  RH  069%=      5-min Rain = 0
KWE2 200507Z 15005KT M01/M05 A303 RMK A01 T10051054  RH  070%=      5-min Rain = 0
KWE2 200508Z 16005KT M01/M05 A303 RMK A01 T10051053  RH  070%=      5-min Rain = 0
KWE2 200509Z 16006KT M01/M05 A3029 RMK A01 T10061053  RH  070%=      5-min Rain = 0
KWE2 200510Z 16006KT M01/M05 A3029 RMK A01 T10071054  RH  070%=      5-min Rain = 0
KWE2 200511Z 16006KT M01/M06 A3029 RMK A01 T10071055  RH  070%=      5-min Rain = 0
KWE2 200512Z 16006KT M01/M05 A3029 RMK A01 T10081054  RH  071%=      5-min Rain = 0
KWE2 200513Z 16006KT M01/M05 A3029 RMK A01 T10071052  RH  072%=      5-min Rain = 0
KWE2 200514Z 16007KT M01/M05 A3029 RMK A01 T10071054  RH  071%=      5-min Rain = 0
KWE2 200515Z 16007KT M01/M05 A3029 RMK A01 T10071054  RH  071%=      5-min Rain = 0
KWE2 200516Z 16007KT M01/M05 A3029 RMK A01 T10071053  RH  071%=      5-min Rain = 0
KWE2 200517Z 16006KT M01/M05 A303 RMK A01 T10081053  RH  071%=      5-min Rain = 0
KWE2 200518Z 15006KT M01/M05 A303 RMK A01 T10081054  RH  071%=      5-min Rain = 0
KWE2 200519Z 15005KT M01/M05 A303 RMK A01 T10081053  RH  072%=      5-min Rain = 0
KWE2 200520Z 15004KT M01/M05 A303 RMK A01 T10081052  RH  072%=      5-min Rain = 0
KWE2 200521Z 15004KT M01/M05 A303 RMK A01 T10071050  RH  073%=      5-min Rain = 0
KWE2 200522Z 15004KT M01/M05 A303 RMK A01 T10061049  RH  073%=      5-min Rain = 0
KWE2 200523Z 15005KT M00/M05 A303 RMK A01 T10041048  RH  072%=      5-min Rain = 0
KWE2 200524Z 15005KT M00/M05 A303 RMK A01 T10041049  RH  072%=      5-min Rain = 0
KWE2 200525Z 15006KT M00/M05 A303 RMK A01 T10031049  RH  071%=      5-min Rain = 0
KWE2 200526Z 15006KT M00/M05 A303 RMK A01 T10031049  RH  071%=      5-min Rain = 0
KWE2 200527Z 15005KT M00/M05 A303 RMK A01 T10031050  RH  071%=      5-min Rain = 0
KWE2 200528Z 16005KT M00/M05 A303 RMK A01 T10031050  RH  071%=      5-min Rain = 0
KWE2 200529Z 16005KT M00/M05 A303 RMK A01 T10031050  RH  070%=      5-min Rain = 0
KWE2 200530Z 16004KT M00/M05 A303 RMK A01 T10031050  RH  070%=      5-min Rain = 0
KWE2 200531Z 16004KT M00/M05 A303 RMK A01 T10041051  RH  070%=      5-min Rain = 0
KWE2 200532Z 16004KT M00/M05 A303 RMK A01 T10041051  RH  071%=      5-min Rain = 0
KWE2 200533Z 16004KT M00/M05 A303 RMK A01 T10041050  RH  071%=      5-min Rain = 0
KWE2 200534Z 16005KT M00/M05 A303 RMK A01 T10041050  RH  071%=      5-min Rain = 0
KWE2 200535Z 17006KT M00/M05 A3031 RMK A01 T10041050  RH  071%=      5-min Rain = 0
KWE2 200536Z 17007KT M00/M05 A3031 RMK A01 T10041050  RH  071%=      5-min Rain = 0
KWE2 200537Z 16008KT M01/M05 A3031 RMK A01 T10051050  RH  072%=      5-min Rain = 0
KWE2 200538Z 16007KT M01/M05 A3031 RMK A01 T10051049  RH  072%=      5-min Rain = 0
KWE2 200539Z 16007KT M01/M05 A3031 RMK A01 T10051048  RH  073%=      5-min Rain = 0
KWE2 200540Z 16007KT M01/M05 A3031 RMK A01 T10051048  RH  073%=      5-min Rain = 0
KWE2 200541Z 16007KT M00/M05 A3031 RMK A01 T10041047  RH  073%=      5-min Rain = 0
KWE2 200542Z 16007KT M00/M05 A3031 RMK A01 T10031047  RH  072%=      5-min Rain = 0
KWE2 200543Z 16007KT M00/M05 A3031 RMK A01 T10021047  RH  072%=      5-min Rain = 0
KWE2 200544Z 16007KT M00/M05 A3031 RMK A01 T10011046  RH  072%=      5-min Rain = 0
KWE2 200545Z 15006KT M00/M05 A3031 RMK A01 T10011046  RH  072%=      5-min Rain = 0
KWE2 200546Z 15006KT 00/05 A3031 RMK A01 T00000-45  RH  071%=      5-min Rain = 0
KWE2 200547Z 15006KT 00/M05 A3031 RMK A01 T00011045  RH  071%=      5-min Rain = 0
KWE2 200548Z 15005KT 00/M05 A3031 RMK A01 T00021045  RH  071%=      5-min Rain = 0
KWE2 200549Z 16006KT 00/M05 A3031 RMK A01 T00011046  RH  071%=      5-min Rain = 0
KWE2 200550Z 17006KT 00/M05 A3031 RMK A01 T00011046  RH  071%=      5-min Rain = 0
KWE2 200551Z 17006KT 00/M05 A3031 RMK A01 T00011046  RH  070%=      5-min Rain = 0
KWE2 200552Z 17005KT 00/M05 A3031 RMK A01 T00011046  RH  071%=      5-min Rain = 0
KWE2 200553Z 16004KT 00/M05 A3031 RMK A01 T00011047  RH  071%=      5-min Rain = 0
KWE2 200554Z 15003KT 00/05 A3031 RMK A01 T00-00-47  RH  071%=      5-min Rain = 0
KWE2 200555Z 16003KT M00/M05 A3031 RMK A01 T10011047  RH  071%=      5-min Rain = 0
KWE2 200556Z 16003KT M00/M05 A3031 RMK A01 T10011046  RH  071%=      5-min Rain = 0
KWE2 200557Z 17003KT M00/M05 A3031 RMK A01 T10011046  RH  071%=      5-min Rain = 0
KWE2 200558Z 17003KT M00/M05 A3031 RMK A01 T10011046  RH  072%=      5-min Rain = 0
KWE2 200559Z 17004KT M00/M05 A3031 RMK A01 T10011046  RH  072%=      5-min Rain = 0

Page generated in 0.1444 seconds.